BAW22 EGLL-KLAX
Flight info
| Callsign | BAW22 |
|---|---|
| Flight time | 10h 41m |
| Altitude | 32000 |
| Route | ULTIB T420 TNT UL28 PENIL DCT DEJEM DCT OZRAT DCT WETFI DCT SUROX DCT REVNU DCT PIGET DCT SUNOT/M082F340 DCT 58N020W 60N030W 61N040W 62N050W DCT NIFTY/N0473F340 DCT JELCO DCT KELMU/N0486F360 DCT 56N090W DCT KAIIN DCT SEGAP Q945 DIK DCT FBR/N0467F380 DCT MLF DCT WINEN/N0465F370 Q73 EEVUN/N0466F380 Q73 HAKMN ANJLL4 |
| Aircraft | B77W/H-SDE1E2E3FGHIJ2J3J4J5M1RWXY/LB1D1 |
Departure
| Time | 2026-05-07 17:14 |
|---|---|
| Airport | London Heathrow Airport (EGLL) |
Arrival
| Time | 2026-05-08 03:55 |
|---|---|
| Airport | Los Angeles International Airport (KLAX) |
| Time | Latitude | Longitude | Altitude | Speed | Heading |
|---|---|---|---|---|---|
| 2026-05-07 16:31 | 51.46994 | -0.48595 | 94 ft | 0 kts | 270° |
| 2026-05-07 17:06 | 51.46994 | -0.48573 | 95 ft | 3 kts | 270° |
| 2026-05-07 17:07 | 51.46994 | -0.48540 | 93 ft | 3 kts | 270° |
| 2026-05-07 17:07 | 51.46994 | -0.48512 | 94 ft | 3 kts | 263° |
| 2026-05-07 17:07 | 51.47000 | -0.48484 | 93 ft | 3 kts | 224° |
| 2026-05-07 17:07 | 51.47015 | -0.48471 | 92 ft | 3 kts | 180° |
| 2026-05-07 17:08 | 51.47034 | -0.48471 | 92 ft | 3 kts | 180° |
| 2026-05-07 17:08 | 51.47050 | -0.48471 | 92 ft | 0 kts | 180° |
| 2026-05-07 17:11 | 51.47042 | -0.48471 | 95 ft | 5 kts | 180° |
| 2026-05-07 17:11 | 51.46971 | -0.48470 | 94 ft | 12 kts | 179° |
| 2026-05-07 17:12 | 51.46884 | -0.48470 | 94 ft | 12 kts | 179° |
| 2026-05-07 17:12 | 51.46798 | -0.48468 | 91 ft | 12 kts | 179° |
| 2026-05-07 17:12 | 51.46712 | -0.48468 | 91 ft | 12 kts | 180° |
| 2026-05-07 17:12 | 51.46625 | -0.48468 | 91 ft | 12 kts | 180° |
| 2026-05-07 17:13 | 51.46539 | -0.48466 | 91 ft | 12 kts | 174° |
| 2026-05-07 17:13 | 51.46481 | -0.48380 | 95 ft | 13 kts | 97° |
| 2026-05-07 17:13 | 51.46480 | -0.48336 | 93 ft | 6 kts | 91° |
| 2026-05-07 17:13 | 51.46480 | -0.47805 | 91 ft | 96 kts | 90° |
| 2026-05-07 17:14 | 51.46484 | -0.46220 | 97 ft | 188 kts | 90° |
| 2026-05-07 17:14 | 51.46509 | -0.43815 | 585 ft | 233 kts | 90° |
| 2026-05-07 17:14 | 51.46703 | -0.41218 | 1783 ft | 231 kts | 75° |
| 2026-05-07 17:14 | 51.47409 | -0.38867 | 2406 ft | 241 kts | 54° |
| 2026-05-07 17:15 | 51.48462 | -0.36701 | 2922 ft | 251 kts | 51° |
| 2026-05-07 17:15 | 51.49595 | -0.34522 | 3514 ft | 258 kts | 50° |
| 2026-05-07 17:15 | 51.50793 | -0.32278 | 4046 ft | 269 kts | 50° |
| 2026-05-07 17:15 | 51.52023 | -0.29967 | 4732 ft | 274 kts | 51° |
| 2026-05-07 17:16 | 51.53085 | -0.27420 | 5427 ft | 273 kts | 60° |
| 2026-05-07 17:16 | 51.53828 | -0.24664 | 5869 ft | 267 kts | 76° |
| 2026-05-07 17:16 | 51.54274 | -0.21738 | 6002 ft | 274 kts | 75° |
| 2026-05-07 17:16 | 51.55037 | -0.18990 | 5983 ft | 270 kts | 48° |
| 2026-05-07 17:17 | 51.56593 | -0.17376 | 5999 ft | 269 kts | 12° |
| 2026-05-07 17:17 | 51.58442 | -0.17488 | 6029 ft | 270 kts | 340° |
| 2026-05-07 17:17 | 51.60137 | -0.18824 | 6043 ft | 275 kts | 328° |
| 2026-05-07 17:17 | 51.61757 | -0.20497 | 6038 ft | 277 kts | 324° |
| 2026-05-07 17:18 | 51.63338 | -0.22250 | 6026 ft | 274 kts | 326° |
| 2026-05-07 17:18 | 51.64893 | -0.23928 | 6019 ft | 272 kts | 326° |
| 2026-05-07 17:18 | 51.66460 | -0.25616 | 6112 ft | 271 kts | 326° |
| 2026-05-07 17:18 | 51.68032 | -0.27310 | 6741 ft | 274 kts | 326° |
| 2026-05-07 17:19 | 51.69625 | -0.29026 | 7390 ft | 277 kts | 326° |
| 2026-05-07 17:19 | 51.71237 | -0.30752 | 8044 ft | 280 kts | 325° |
| 2026-05-07 17:19 | 51.72875 | -0.32492 | 8691 ft | 284 kts | 326° |
| 2026-05-07 17:19 | 51.74535 | -0.34242 | 9349 ft | 287 kts | 326° |
| 2026-05-07 17:20 | 51.76222 | -0.36006 | 9990 ft | 291 kts | 326° |
| 2026-05-07 17:20 | 51.77935 | -0.37787 | 10545 ft | 294 kts | 326° |
| 2026-05-07 17:20 | 51.79664 | -0.39577 | 11152 ft | 297 kts | 326° |
| 2026-05-07 17:20 | 51.81418 | -0.41390 | 11777 ft | 301 kts | 326° |
| 2026-05-07 17:21 | 51.83191 | -0.43221 | 12398 ft | 305 kts | 326° |
| 2026-05-07 17:21 | 51.84991 | -0.45079 | 13064 ft | 308 kts | 326° |
| 2026-05-07 17:21 | 51.86835 | -0.46950 | 13515 ft | 322 kts | 326° |
| 2026-05-07 17:21 | 51.88808 | -0.48923 | 13672 ft | 344 kts | 327° |
| 2026-05-07 17:22 | 51.90907 | -0.51019 | 13872 ft | 365 kts | 327° |
| 2026-05-07 17:22 | 51.93132 | -0.53244 | 13989 ft | 388 kts | 327° |
| 2026-05-07 17:22 | 51.95467 | -0.55583 | 14045 ft | 397 kts | 327° |
| 2026-05-07 17:22 | 51.97827 | -0.57951 | 14041 ft | 400 kts | 327° |
| 2026-05-07 17:23 | 52.00188 | -0.60324 | 14047 ft | 400 kts | 327° |
| 2026-05-07 17:23 | 52.02567 | -0.62722 | 14582 ft | 404 kts | 327° |
| 2026-05-07 17:23 | 52.04944 | -0.65122 | 15464 ft | 403 kts | 326° |
| 2026-05-07 17:23 | 52.06525 | -0.66720 | 16006 ft | 404 kts | 326° |
| 2026-05-07 17:24 | 52.08917 | -0.69142 | 16786 ft | 406 kts | 326° |
| 2026-05-07 17:24 | 52.11326 | -0.71583 | 17508 ft | 410 kts | 326° |
| 2026-05-07 17:24 | 52.12703 | -0.72981 | 17927 ft | 412 kts | 326° |
| 2026-05-07 17:24 | 52.15146 | -0.75463 | 18600 ft | 416 kts | 326° |
| 2026-05-07 17:25 | 52.17608 | -0.77967 | 19226 ft | 419 kts | 326° |
| 2026-05-07 17:25 | 52.20086 | -0.80491 | 19849 ft | 422 kts | 326° |
| 2026-05-07 17:25 | 52.22583 | -0.83035 | 20457 ft | 425 kts | 326° |
| 2026-05-07 17:25 | 52.25919 | -0.86432 | 21253 ft | 429 kts | 326° |
| 2026-05-07 17:26 | 52.27646 | -0.88157 | 21648 ft | 431 kts | 326° |
| 2026-05-07 17:26 | 52.30228 | -0.90711 | 22200 ft | 436 kts | 327° |
| 2026-05-07 17:26 | 52.32839 | -0.93290 | 22736 ft | 440 kts | 327° |
| 2026-05-07 17:26 | 52.35466 | -0.95890 | 23328 ft | 443 kts | 327° |
| 2026-05-07 17:27 | 52.38112 | -0.98517 | 23862 ft | 446 kts | 327° |
| 2026-05-07 17:27 | 52.40769 | -1.01165 | 24351 ft | 449 kts | 326° |
| 2026-05-07 17:27 | 52.43449 | -1.03841 | 24776 ft | 452 kts | 326° |
| 2026-05-07 17:27 | 52.46134 | -1.06527 | 25202 ft | 455 kts | 326° |
| 2026-05-07 17:28 | 52.48806 | -1.09204 | 25636 ft | 458 kts | 326° |
| 2026-05-07 17:28 | 52.51532 | -1.11955 | 26060 ft | 461 kts | 326° |
| 2026-05-07 17:28 | 52.54272 | -1.14738 | 26413 ft | 466 kts | 326° |
| 2026-05-07 17:28 | 52.57045 | -1.17558 | 26737 ft | 471 kts | 327° |
| 2026-05-07 17:29 | 52.59837 | -1.20388 | 27152 ft | 473 kts | 327° |
| 2026-05-07 17:29 | 52.62651 | -1.23236 | 27569 ft | 475 kts | 327° |
| 2026-05-07 17:29 | 52.65470 | -1.26091 | 27962 ft | 478 kts | 327° |
| 2026-05-07 17:29 | 52.68317 | -1.28983 | 28318 ft | 481 kts | 327° |
| 2026-05-07 17:30 | 52.71174 | -1.31891 | 28670 ft | 484 kts | 327° |
| 2026-05-07 17:30 | 52.74046 | -1.34813 | 29021 ft | 486 kts | 327° |
| 2026-05-07 17:30 | 52.76930 | -1.37750 | 29387 ft | 488 kts | 327° |
| 2026-05-07 17:30 | 52.79837 | -1.40714 | 29610 ft | 493 kts | 327° |
| 2026-05-07 17:31 | 52.82754 | -1.43693 | 30032 ft | 492 kts | 327° |
| 2026-05-07 17:31 | 52.85663 | -1.46669 | 30493 ft | 490 kts | 327° |
| 2026-05-07 17:31 | 52.88553 | -1.49631 | 30963 ft | 488 kts | 327° |
| 2026-05-07 17:31 | 52.91432 | -1.52586 | 31366 ft | 486 kts | 327° |
| 2026-05-07 17:32 | 52.94295 | -1.55530 | 31825 ft | 483 kts | 327° |
| 2026-05-07 17:32 | 52.97152 | -1.58474 | 32070 ft | 486 kts | 327° |
| 2026-05-07 17:32 | 53.02939 | -1.64450 | 32020 ft | 491 kts | 327° |
| 2026-05-07 17:33 | 53.08680 | -1.70400 | 32016 ft | 488 kts | 327° |
| 2026-05-07 17:33 | 53.14436 | -1.76400 | 32015 ft | 487 kts | 327° |
| 2026-05-07 17:34 | 53.20185 | -1.82483 | 32018 ft | 485 kts | 323° |
| 2026-05-07 17:34 | 53.22708 | -1.86083 | 32012 ft | 483 kts | 312° |
| 2026-05-07 17:34 | 53.24867 | -1.90353 | 32014 ft | 482 kts | 304° |
| 2026-05-07 17:35 | 53.28078 | -2.00144 | 32014 ft | 483 kts | 293° |
| 2026-05-07 17:35 | 53.30999 | -2.10318 | 32026 ft | 487 kts | 294° |
| 2026-05-07 17:36 | 53.34008 | -2.20483 | 32025 ft | 488 kts | 294° |
| 2026-05-07 17:36 | 53.36704 | -2.30855 | 32012 ft | 484 kts | 285° |
| 2026-05-07 17:37 | 53.38703 | -2.41581 | 32011 ft | 481 kts | 285° |
| 2026-05-07 17:37 | 53.40683 | -2.52263 | 32016 ft | 479 kts | 285° |
| 2026-05-07 17:38 | 53.42688 | -2.62901 | 32020 ft | 478 kts | 285° |
| 2026-05-07 17:38 | 53.44689 | -2.73513 | 31988 ft | 476 kts | 285° |
| 2026-05-07 17:39 | 53.46671 | -2.84093 | 31991 ft | 474 kts | 285° |
| 2026-05-07 17:39 | 53.48633 | -2.94648 | 31991 ft | 473 kts | 285° |
| 2026-05-07 17:40 | 53.50565 | -3.05211 | 31993 ft | 473 kts | 284° |
| 2026-05-07 17:40 | 53.52487 | -3.15789 | 32000 ft | 473 kts | 284° |
| 2026-05-07 17:41 | 53.54399 | -3.26360 | 31987 ft | 472 kts | 284° |
| 2026-05-07 17:41 | 53.56301 | -3.36918 | 31985 ft | 471 kts | 284° |
| 2026-05-07 17:42 | 53.58190 | -3.47464 | 31985 ft | 471 kts | 284° |
| 2026-05-07 17:42 | 53.60094 | -3.58012 | 31984 ft | 470 kts | 284° |
| 2026-05-07 17:43 | 53.61983 | -3.68541 | 31995 ft | 469 kts | 284° |
| 2026-05-07 17:43 | 53.63789 | -3.79012 | 31977 ft | 468 kts | 283° |
| 2026-05-07 17:44 | 53.65574 | -3.89533 | 31979 ft | 466 kts | 283° |
| 2026-05-07 17:44 | 53.67354 | -4.00044 | 31989 ft | 466 kts | 283° |
| 2026-05-07 17:45 | 53.69132 | -4.10572 | 31983 ft | 467 kts | 283° |
| 2026-05-07 17:45 | 53.70903 | -4.21125 | 31991 ft | 468 kts | 283° |
| 2026-05-07 17:46 | 53.72668 | -4.31700 | 31979 ft | 468 kts | 283° |
| 2026-05-07 17:46 | 53.74423 | -4.42284 | 31971 ft | 467 kts | 283° |
| 2026-05-07 17:47 | 53.76167 | -4.52857 | 31971 ft | 467 kts | 282° |
| 2026-05-07 17:47 | 53.77897 | -4.63421 | 31968 ft | 466 kts | 282° |
| 2026-05-07 17:48 | 53.79610 | -4.73977 | 31978 ft | 465 kts | 282° |
| 2026-05-07 17:48 | 53.81056 | -4.84591 | 31963 ft | 461 kts | 275° |
| 2026-05-07 17:49 | 53.81457 | -4.95278 | 31972 ft | 457 kts | 270° |
| 2026-05-07 17:49 | 53.81741 | -5.06019 | 31960 ft | 457 kts | 270° |
| 2026-05-07 17:50 | 53.82054 | -5.16748 | 31959 ft | 457 kts | 270° |
| 2026-05-07 17:50 | 53.82371 | -5.27511 | 31971 ft | 457 kts | 270° |
| 2026-05-07 17:51 | 53.82678 | -5.38243 | 31951 ft | 457 kts | 270° |
| 2026-05-07 17:51 | 53.83002 | -5.48976 | 31949 ft | 457 kts | 272° |
| 2026-05-07 17:52 | 53.84067 | -5.59624 | 31961 ft | 459 kts | 278° |
| 2026-05-07 17:52 | 53.85352 | -5.70209 | 31947 ft | 459 kts | 278° |
| 2026-05-07 17:53 | 53.86606 | -5.80814 | 31957 ft | 459 kts | 278° |
| 2026-05-07 17:53 | 53.87833 | -5.91430 | 31937 ft | 459 kts | 278° |
| 2026-05-07 17:54 | 53.89048 | -6.02061 | 31943 ft | 459 kts | 278° |
| 2026-05-07 17:54 | 53.90253 | -6.12694 | 31927 ft | 459 kts | 277° |
| 2026-05-07 17:55 | 53.91449 | -6.23332 | 31930 ft | 460 kts | 277° |
| 2026-05-07 17:55 | 53.92629 | -6.33912 | 31935 ft | 459 kts | 277° |
| 2026-05-07 17:56 | 53.93806 | -6.44561 | 31926 ft | 459 kts | 277° |
| 2026-05-07 17:56 | 53.94972 | -6.55191 | 31917 ft | 458 kts | 277° |
| 2026-05-07 17:57 | 53.95932 | -6.64015 | 31926 ft | 457 kts | 277° |
| 2026-05-07 17:57 | 53.97268 | -6.76416 | 31917 ft | 456 kts | 277° |
| 2026-05-07 17:58 | 53.98401 | -6.87015 | 31932 ft | 456 kts | 277° |
| 2026-05-07 17:58 | 53.99527 | -6.97630 | 31918 ft | 457 kts | 277° |
| 2026-05-07 17:59 | 54.01093 | -7.08117 | 31916 ft | 459 kts | 282° |
| 2026-05-07 17:59 | 54.02839 | -7.18565 | 31914 ft | 459 kts | 282° |
| 2026-05-07 18:00 | 54.04563 | -7.29019 | 31919 ft | 459 kts | 282° |
| 2026-05-07 18:00 | 54.06251 | -7.39414 | 31915 ft | 459 kts | 282° |
| 2026-05-07 18:01 | 54.07936 | -7.49890 | 31903 ft | 459 kts | 282° |
| 2026-05-07 18:01 | 54.09612 | -7.60380 | 31911 ft | 459 kts | 282° |
| 2026-05-07 18:02 | 54.12110 | -7.76124 | 31901 ft | 459 kts | 282° |
| 2026-05-07 18:03 | 54.13763 | -7.86628 | 31909 ft | 459 kts | 282° |
| 2026-05-07 18:03 | 54.15408 | -7.97151 | 31920 ft | 459 kts | 282° |
| 2026-05-07 18:04 | 54.17046 | -8.07692 | 31911 ft | 459 kts | 282° |
| 2026-05-07 18:04 | 54.18673 | -8.18230 | 31907 ft | 459 kts | 282° |
| 2026-05-07 18:05 | 54.20290 | -8.28769 | 31914 ft | 459 kts | 282° |
| 2026-05-07 18:05 | 54.21897 | -8.39314 | 31918 ft | 459 kts | 281° |
| 2026-05-07 18:06 | 54.23494 | -8.49865 | 31915 ft | 458 kts | 281° |
| 2026-05-07 18:06 | 54.25082 | -8.60413 | 31917 ft | 458 kts | 281° |
| 2026-05-07 18:07 | 54.26645 | -8.70875 | 31907 ft | 456 kts | 280° |
| 2026-05-07 18:07 | 54.28205 | -8.81387 | 31911 ft | 455 kts | 280° |
| 2026-05-07 18:08 | 54.29753 | -8.91884 | 31909 ft | 455 kts | 280° |
| 2026-05-07 18:08 | 54.31290 | -9.02376 | 31917 ft | 454 kts | 280° |
| 2026-05-07 18:09 | 54.32818 | -9.12874 | 31924 ft | 454 kts | 279° |
| 2026-05-07 18:09 | 54.34337 | -9.23382 | 31917 ft | 454 kts | 279° |
| 2026-05-07 18:10 | 54.35844 | -9.33881 | 31908 ft | 453 kts | 279° |
| 2026-05-07 18:10 | 54.37342 | -9.44382 | 31921 ft | 453 kts | 279° |
| 2026-05-07 18:11 | 54.38830 | -9.54890 | 31928 ft | 453 kts | 279° |
| 2026-05-07 18:11 | 54.40308 | -9.65399 | 31936 ft | 453 kts | 278° |
| 2026-05-07 18:12 | 54.41768 | -9.75847 | 31919 ft | 453 kts | 278° |
| 2026-05-07 18:12 | 54.43225 | -9.86350 | 31921 ft | 452 kts | 278° |
| 2026-05-07 18:13 | 54.44675 | -9.96862 | 31924 ft | 452 kts | 278° |
| 2026-05-07 18:13 | 54.46303 | -10.07283 | 31920 ft | 456 kts | 288° |
| 2026-05-07 18:14 | 54.49631 | -10.16712 | 31931 ft | 469 kts | 305° |
| 2026-05-07 18:14 | 54.54305 | -10.24685 | 31950 ft | 475 kts | 311° |
| 2026-05-07 18:15 | 54.59122 | -10.32525 | 31942 ft | 477 kts | 310° |
| 2026-05-07 18:15 | 54.63918 | -10.40452 | 31926 ft | 477 kts | 310° |
| 2026-05-07 18:16 | 54.68676 | -10.48428 | 31916 ft | 477 kts | 310° |
| 2026-05-07 18:16 | 54.73422 | -10.56442 | 32013 ft | 478 kts | 310° |
| 2026-05-07 18:16 | 54.75805 | -10.60478 | 32289 ft | 479 kts | 310° |
| 2026-05-07 18:17 | 54.78188 | -10.64519 | 32576 ft | 480 kts | 310° |
| 2026-05-07 18:17 | 54.80539 | -10.68513 | 32833 ft | 481 kts | 309° |
| 2026-05-07 18:17 | 54.82933 | -10.72584 | 33020 ft | 483 kts | 309° |
| 2026-05-07 18:17 | 54.85336 | -10.76679 | 33195 ft | 485 kts | 309° |
| 2026-05-07 18:18 | 54.87742 | -10.80786 | 33436 ft | 485 kts | 309° |
| 2026-05-07 18:18 | 54.90147 | -10.84895 | 33749 ft | 484 kts | 309° |
| 2026-05-07 18:18 | 54.92552 | -10.89012 | 33880 ft | 487 kts | 309° |
| 2026-05-07 18:19 | 54.96571 | -10.95909 | 33909 ft | 488 kts | 309° |
| 2026-05-07 18:19 | 55.01384 | -11.04186 | 33908 ft | 475 kts | 309° |
| 2026-05-07 18:20 | 55.05990 | -11.12132 | 33907 ft | 466 kts | 309° |
| 2026-05-07 18:20 | 55.10583 | -11.20109 | 33901 ft | 466 kts | 309° |
| 2026-05-07 18:21 | 55.15181 | -11.28119 | 33904 ft | 467 kts | 309° |
| 2026-05-07 18:21 | 55.19784 | -11.36158 | 33925 ft | 468 kts | 309° |
| 2026-05-07 18:22 | 55.24385 | -11.44220 | 33902 ft | 468 kts | 309° |
| 2026-05-07 18:22 | 55.28991 | -11.52318 | 33905 ft | 469 kts | 309° |
| 2026-05-07 18:23 | 55.33595 | -11.60440 | 33906 ft | 469 kts | 309° |
| 2026-05-07 18:23 | 55.38197 | -11.68588 | 33900 ft | 469 kts | 309° |
| 2026-05-07 18:24 | 55.42787 | -11.76744 | 33893 ft | 469 kts | 309° |
| 2026-05-07 18:24 | 55.47366 | -11.84908 | 33892 ft | 468 kts | 309° |
| 2026-05-07 18:25 | 55.51942 | -11.93095 | 33892 ft | 468 kts | 309° |
| 2026-05-07 18:25 | 55.56503 | -12.01285 | 33893 ft | 468 kts | 309° |
| 2026-05-07 18:26 | 55.61059 | -12.09495 | 33891 ft | 467 kts | 309° |
| 2026-05-07 18:26 | 55.65606 | -12.17718 | 33896 ft | 467 kts | 309° |
| 2026-05-07 18:27 | 55.70150 | -12.25964 | 33926 ft | 468 kts | 309° |
| 2026-05-07 18:27 | 55.74697 | -12.34247 | 33901 ft | 469 kts | 308° |
| 2026-05-07 18:28 | 55.79252 | -12.42572 | 33891 ft | 470 kts | 308° |
| 2026-05-07 18:28 | 55.83807 | -12.50930 | 33904 ft | 471 kts | 308° |
| 2026-05-07 18:29 | 55.88175 | -12.59610 | 33896 ft | 470 kts | 305° |
| 2026-05-07 18:29 | 55.92414 | -12.68462 | 33919 ft | 470 kts | 305° |
| 2026-05-07 18:30 | 55.96669 | -12.77322 | 33884 ft | 470 kts | 305° |
| 2026-05-07 18:30 | 56.00939 | -12.86154 | 33887 ft | 469 kts | 305° |
| 2026-05-07 18:31 | 56.05175 | -12.94912 | 33893 ft | 468 kts | 305° |
| 2026-05-07 18:31 | 56.09429 | -13.03741 | 33884 ft | 468 kts | 305° |
| 2026-05-07 18:32 | 56.13699 | -13.12637 | 33893 ft | 467 kts | 305° |
| 2026-05-07 18:32 | 56.17902 | -13.21429 | 33895 ft | 467 kts | 306° |
| 2026-05-07 18:33 | 56.22120 | -13.30289 | 33891 ft | 466 kts | 306° |
| 2026-05-07 18:33 | 56.26328 | -13.39155 | 33888 ft | 465 kts | 306° |
| 2026-05-07 18:34 | 56.30516 | -13.48013 | 33890 ft | 464 kts | 306° |
| 2026-05-07 18:34 | 56.34693 | -13.56882 | 33885 ft | 464 kts | 306° |
| 2026-05-07 18:35 | 56.38861 | -13.65767 | 33892 ft | 464 kts | 306° |
| 2026-05-07 18:35 | 56.43026 | -13.74675 | 33893 ft | 464 kts | 306° |
| 2026-05-07 18:36 | 56.47188 | -13.83610 | 33893 ft | 465 kts | 306° |
| 2026-05-07 18:36 | 56.51342 | -13.92564 | 33886 ft | 465 kts | 306° |
| 2026-05-07 18:37 | 56.55495 | -14.01547 | 33888 ft | 465 kts | 306° |
| 2026-05-07 18:37 | 56.59644 | -14.10555 | 33911 ft | 465 kts | 306° |
| 2026-05-07 18:38 | 56.63778 | -14.19561 | 33893 ft | 463 kts | 306° |
| 2026-05-07 18:38 | 56.67891 | -14.28560 | 33889 ft | 462 kts | 306° |
| 2026-05-07 18:39 | 56.71993 | -14.37570 | 33897 ft | 462 kts | 306° |
| 2026-05-07 18:39 | 56.76088 | -14.46597 | 33902 ft | 462 kts | 306° |
| 2026-05-07 18:40 | 56.80182 | -14.55655 | 33911 ft | 463 kts | 306° |
| 2026-05-07 18:40 | 56.84279 | -14.64753 | 33909 ft | 463 kts | 305° |
| 2026-05-07 18:41 | 56.88331 | -14.73786 | 33912 ft | 462 kts | 306° |
| 2026-05-07 18:41 | 56.92415 | -14.82929 | 33921 ft | 466 kts | 306° |
| 2026-05-07 18:42 | 56.96512 | -14.92128 | 33893 ft | 465 kts | 306° |
| 2026-05-07 18:42 | 57.00190 | -15.01774 | 33926 ft | 459 kts | 296° |
| 2026-05-07 18:43 | 57.02847 | -15.12342 | 33919 ft | 456 kts | 290° |
| 2026-05-07 18:43 | 57.05224 | -15.23140 | 33909 ft | 456 kts | 290° |
| 2026-05-07 18:44 | 57.07603 | -15.33951 | 33920 ft | 457 kts | 290° |
| 2026-05-07 18:44 | 57.09996 | -15.44789 | 33934 ft | 457 kts | 289° |
| 2026-05-07 18:45 | 57.12388 | -15.55641 | 33933 ft | 457 kts | 289° |
| 2026-05-07 18:45 | 57.14764 | -15.66477 | 33933 ft | 456 kts | 289° |
| 2026-05-07 18:46 | 57.17126 | -15.77298 | 33940 ft | 454 kts | 289° |
| 2026-05-07 18:46 | 57.19468 | -15.88088 | 33968 ft | 453 kts | 289° |
| 2026-05-07 18:47 | 57.21809 | -15.98940 | 33958 ft | 456 kts | 289° |
| 2026-05-07 18:47 | 57.24140 | -16.09795 | 33951 ft | 453 kts | 289° |
| 2026-05-07 18:48 | 57.26452 | -16.20623 | 33968 ft | 460 kts | 290° |
| 2026-05-07 18:48 | 57.28796 | -16.31655 | 33961 ft | 457 kts | 289° |
| 2026-05-07 18:49 | 57.31088 | -16.42492 | 33974 ft | 453 kts | 289° |
| 2026-05-07 18:49 | 57.33370 | -16.53348 | 33970 ft | 449 kts | 289° |
| 2026-05-07 18:50 | 57.35612 | -16.64072 | 33962 ft | 447 kts | 290° |
| 2026-05-07 18:50 | 57.37871 | -16.74942 | 33999 ft | 457 kts | 290° |
| 2026-05-07 18:51 | 57.40144 | -16.85937 | 33972 ft | 456 kts | 290° |
| 2026-05-07 18:51 | 57.42408 | -16.96929 | 33987 ft | 454 kts | 290° |
| 2026-05-07 18:52 | 57.44655 | -17.07913 | 34006 ft | 455 kts | 290° |
| 2026-05-07 18:52 | 57.46888 | -17.18887 | 33995 ft | 455 kts | 289° |
| 2026-05-07 18:53 | 57.49106 | -17.29846 | 34010 ft | 450 kts | 289° |
| 2026-05-07 18:53 | 57.51276 | -17.40623 | 33993 ft | 443 kts | 290° |
| 2026-05-07 18:54 | 57.53457 | -17.51521 | 34022 ft | 455 kts | 289° |
| 2026-05-07 18:54 | 57.55663 | -17.62609 | 34013 ft | 459 kts | 289° |
| 2026-05-07 18:55 | 57.57867 | -17.73746 | 34020 ft | 461 kts | 290° |
| 2026-05-07 18:55 | 57.60052 | -17.84843 | 34014 ft | 450 kts | 289° |
| 2026-05-07 18:56 | 57.62203 | -17.95829 | 34044 ft | 451 kts | 289° |
| 2026-05-07 18:56 | 57.64347 | -18.06849 | 34039 ft | 452 kts | 289° |
| 2026-05-07 18:57 | 57.66484 | -18.17889 | 34042 ft | 453 kts | 289° |
| 2026-05-07 18:57 | 57.68613 | -18.28956 | 34035 ft | 453 kts | 289° |
| 2026-05-07 18:58 | 57.70747 | -18.40108 | 34060 ft | 458 kts | 289° |
| 2026-05-07 18:58 | 57.72887 | -18.51362 | 34055 ft | 456 kts | 290° |
| 2026-05-07 18:59 | 57.74995 | -18.62505 | 34056 ft | 454 kts | 290° |
| 2026-05-07 18:59 | 57.77079 | -18.73591 | 34053 ft | 450 kts | 290° |
| 2026-05-07 19:00 | 57.79149 | -18.84657 | 34048 ft | 452 kts | 289° |
| 2026-05-07 19:00 | 57.81227 | -18.95849 | 34057 ft | 455 kts | 289° |
| 2026-05-07 19:01 | 57.83312 | -19.07128 | 34071 ft | 459 kts | 289° |
| 2026-05-07 19:01 | 57.85392 | -19.18462 | 34072 ft | 456 kts | 289° |
| 2026-05-07 19:02 | 57.87438 | -19.29669 | 34079 ft | 452 kts | 289° |
| 2026-05-07 19:02 | 57.89459 | -19.40811 | 34083 ft | 447 kts | 289° |
| 2026-05-07 19:03 | 57.91463 | -19.51901 | 34075 ft | 452 kts | 289° |
| 2026-05-07 19:03 | 57.93484 | -19.63183 | 34075 ft | 458 kts | 289° |
| 2026-05-07 19:04 | 57.95507 | -19.74533 | 34110 ft | 459 kts | 289° |
| 2026-05-07 19:04 | 57.97507 | -19.85831 | 34091 ft | 451 kts | 289° |
| 2026-05-07 19:05 | 57.99489 | -19.97068 | 34090 ft | 451 kts | 290° |
| 2026-05-07 19:05 | 58.01939 | -20.08000 | 34124 ft | 455 kts | 296° |
| 2026-05-07 19:06 | 58.04681 | -20.18791 | 34117 ft | 457 kts | 296° |
| 2026-05-07 19:06 | 58.08774 | -20.35031 | 34124 ft | 457 kts | 296° |
| 2026-05-07 19:07 | 58.11465 | -20.45902 | 34125 ft | 457 kts | 296° |
| 2026-05-07 19:07 | 58.14140 | -20.56777 | 34139 ft | 454 kts | 296° |
| 2026-05-07 19:08 | 58.16804 | -20.67605 | 34124 ft | 453 kts | 296° |
| 2026-05-07 19:08 | 58.19000 | -20.76613 | 34128 ft | 453 kts | 296° |
| 2026-05-07 19:09 | 58.21642 | -20.87479 | 34128 ft | 455 kts | 296° |
| 2026-05-07 19:09 | 58.24283 | -20.98409 | 34145 ft | 457 kts | 296° |
| 2026-05-07 19:10 | 58.26930 | -21.09410 | 34148 ft | 459 kts | 296° |
| 2026-05-07 19:10 | 58.29577 | -21.20461 | 34146 ft | 460 kts | 295° |
| 2026-05-07 19:11 | 58.32213 | -21.31527 | 34149 ft | 459 kts | 295° |
| 2026-05-07 19:11 | 58.34839 | -21.42602 | 34149 ft | 458 kts | 295° |
| 2026-05-07 19:12 | 58.37448 | -21.53675 | 34153 ft | 458 kts | 295° |
| 2026-05-07 19:12 | 58.40041 | -21.64731 | 34138 ft | 457 kts | 295° |
| 2026-05-07 19:13 | 58.42605 | -21.75716 | 34149 ft | 456 kts | 295° |
| 2026-05-07 19:13 | 58.45172 | -21.86773 | 34157 ft | 456 kts | 295° |
| 2026-05-07 19:14 | 58.47732 | -21.97857 | 34166 ft | 456 kts | 295° |
| 2026-05-07 19:14 | 58.50284 | -22.08961 | 34170 ft | 457 kts | 295° |
| 2026-05-07 19:15 | 58.52830 | -22.20099 | 34169 ft | 457 kts | 295° |
| 2026-05-07 19:15 | 58.55368 | -22.31264 | 34177 ft | 457 kts | 295° |
| 2026-05-07 19:16 | 58.57899 | -22.42451 | 34178 ft | 458 kts | 295° |
| 2026-05-07 19:16 | 58.60417 | -22.53644 | 34183 ft | 457 kts | 295° |
| 2026-05-07 19:17 | 58.62924 | -22.64848 | 34183 ft | 457 kts | 295° |
| 2026-05-07 19:17 | 58.65419 | -22.76055 | 34170 ft | 456 kts | 295° |
| 2026-05-07 19:18 | 58.67901 | -22.87267 | 34183 ft | 456 kts | 295° |
| 2026-05-07 19:18 | 58.70371 | -22.98481 | 34191 ft | 456 kts | 295° |
| 2026-05-07 19:19 | 58.72833 | -23.09721 | 34196 ft | 456 kts | 295° |
| 2026-05-07 19:19 | 58.75286 | -23.20979 | 34194 ft | 456 kts | 295° |
| 2026-05-07 19:20 | 58.77730 | -23.32253 | 34198 ft | 456 kts | 295° |
| 2026-05-07 19:20 | 58.80163 | -23.43546 | 34194 ft | 456 kts | 295° |
| 2026-05-07 19:21 | 58.82584 | -23.54838 | 34201 ft | 455 kts | 295° |
| 2026-05-07 19:21 | 58.84995 | -23.66150 | 34205 ft | 456 kts | 295° |
| 2026-05-07 19:22 | 58.87397 | -23.77482 | 34205 ft | 456 kts | 295° |
| 2026-05-07 19:22 | 58.89788 | -23.88821 | 34217 ft | 456 kts | 295° |
| 2026-05-07 19:23 | 58.92172 | -24.00191 | 34216 ft | 456 kts | 295° |
| 2026-05-07 19:23 | 58.94530 | -24.11499 | 34223 ft | 456 kts | 295° |
| 2026-05-07 19:24 | 58.96896 | -24.22910 | 34198 ft | 456 kts | 295° |
| 2026-05-07 19:24 | 58.99248 | -24.34320 | 34218 ft | 455 kts | 295° |
| 2026-05-07 19:25 | 59.01589 | -24.45735 | 34225 ft | 455 kts | 295° |
| 2026-05-07 19:25 | 59.03916 | -24.57148 | 34230 ft | 455 kts | 295° |
| 2026-05-07 19:26 | 59.06235 | -24.68579 | 34231 ft | 455 kts | 295° |
| 2026-05-07 19:26 | 59.08541 | -24.80028 | 34242 ft | 455 kts | 295° |
| 2026-05-07 19:27 | 59.10837 | -24.91488 | 34242 ft | 455 kts | 295° |
| 2026-05-07 19:27 | 59.13127 | -25.02980 | 34242 ft | 455 kts | 294° |
| 2026-05-07 19:28 | 59.15403 | -25.14469 | 34242 ft | 454 kts | 295° |
| 2026-05-07 19:28 | 59.17666 | -25.25956 | 34243 ft | 454 kts | 294° |
| 2026-05-07 19:29 | 59.19914 | -25.37434 | 34253 ft | 453 kts | 294° |
| 2026-05-07 19:29 | 59.22152 | -25.48929 | 34258 ft | 453 kts | 294° |
| 2026-05-07 19:30 | 59.24376 | -25.60422 | 34258 ft | 452 kts | 294° |
| 2026-05-07 19:30 | 59.26589 | -25.71924 | 34261 ft | 452 kts | 294° |
| 2026-05-07 19:31 | 59.28794 | -25.83450 | 34267 ft | 453 kts | 294° |
| 2026-05-07 19:31 | 59.30991 | -25.94998 | 34264 ft | 453 kts | 294° |
| 2026-05-07 19:32 | 59.33159 | -26.06478 | 34272 ft | 452 kts | 294° |
| 2026-05-07 19:32 | 59.35331 | -26.18030 | 34280 ft | 452 kts | 294° |
| 2026-05-07 19:33 | 59.37492 | -26.29596 | 34275 ft | 452 kts | 294° |
| 2026-05-07 19:33 | 59.39641 | -26.41175 | 34283 ft | 452 kts | 294° |
| 2026-05-07 19:34 | 59.41779 | -26.52759 | 34278 ft | 451 kts | 294° |
| 2026-05-07 19:34 | 59.43908 | -26.64364 | 34289 ft | 451 kts | 294° |
| 2026-05-07 19:35 | 59.46025 | -26.75975 | 34289 ft | 451 kts | 294° |
| 2026-05-07 19:35 | 59.48131 | -26.87603 | 34285 ft | 451 kts | 294° |
| 2026-05-07 19:36 | 59.50223 | -26.99223 | 34293 ft | 449 kts | 294° |
| 2026-05-07 19:36 | 59.52297 | -27.10811 | 34289 ft | 448 kts | 294° |
| 2026-05-07 19:37 | 59.54358 | -27.22398 | 34294 ft | 448 kts | 294° |
| 2026-05-07 19:37 | 59.56406 | -27.33980 | 34302 ft | 447 kts | 294° |
| 2026-05-07 19:38 | 59.58442 | -27.45568 | 34302 ft | 447 kts | 294° |
| 2026-05-07 19:38 | 59.60466 | -27.57160 | 34291 ft | 447 kts | 294° |
| 2026-05-07 19:39 | 59.62481 | -27.68772 | 34308 ft | 447 kts | 294° |
| 2026-05-07 19:39 | 59.64485 | -27.80400 | 34314 ft | 447 kts | 294° |
| 2026-05-07 19:40 | 59.66480 | -27.92043 | 34315 ft | 447 kts | 294° |
| 2026-05-07 19:40 | 59.68469 | -28.03727 | 34322 ft | 448 kts | 294° |
| 2026-05-07 19:41 | 59.70433 | -28.15343 | 34317 ft | 448 kts | 294° |
| 2026-05-07 19:41 | 59.72402 | -28.27055 | 34324 ft | 448 kts | 293° |
| 2026-05-07 19:42 | 59.74362 | -28.38796 | 34310 ft | 449 kts | 294° |
| 2026-05-07 19:42 | 59.76311 | -28.50548 | 34323 ft | 448 kts | 294° |
| 2026-05-07 19:43 | 59.78249 | -28.62308 | 34335 ft | 448 kts | 293° |
| 2026-05-07 19:43 | 59.80175 | -28.74075 | 34334 ft | 448 kts | 293° |
| 2026-05-07 19:44 | 59.82089 | -28.85846 | 34327 ft | 447 kts | 294° |
| 2026-05-07 19:44 | 59.83988 | -28.97603 | 34333 ft | 446 kts | 293° |
| 2026-05-07 19:45 | 59.85872 | -29.09344 | 34337 ft | 446 kts | 293° |
| 2026-05-07 19:45 | 59.87745 | -29.21094 | 34334 ft | 445 kts | 294° |
| 2026-05-07 19:46 | 59.89605 | -29.32842 | 34342 ft | 445 kts | 294° |
| 2026-05-07 19:46 | 59.91453 | -29.44588 | 34346 ft | 445 kts | 293° |
| 2026-05-07 19:47 | 59.93293 | -29.56369 | 34357 ft | 445 kts | 293° |
| 2026-05-07 19:47 | 59.95110 | -29.68074 | 34356 ft | 445 kts | 293° |
| 2026-05-07 19:48 | 59.96926 | -29.79866 | 34358 ft | 444 kts | 294° |
| 2026-05-07 19:48 | 59.98733 | -29.91663 | 34363 ft | 444 kts | 294° |
| 2026-05-07 19:49 | 60.00519 | -30.03481 | 34343 ft | 445 kts | 294° |
| 2026-05-07 19:49 | 60.02201 | -30.15380 | 34358 ft | 445 kts | 293° |
| 2026-05-07 19:50 | 60.03844 | -30.27295 | 34368 ft | 445 kts | 293° |
| 2026-05-07 19:50 | 60.05486 | -30.39224 | 34370 ft | 444 kts | 293° |
| 2026-05-07 19:51 | 60.07124 | -30.51154 | 34373 ft | 444 kts | 293° |
| 2026-05-07 19:51 | 60.08752 | -30.63081 | 34374 ft | 444 kts | 292° |
| 2026-05-07 19:52 | 60.10368 | -30.75005 | 34368 ft | 442 kts | 293° |
| 2026-05-07 19:52 | 60.11955 | -30.86810 | 34348 ft | 441 kts | 294° |
| 2026-05-07 19:53 | 60.13536 | -30.98656 | 34371 ft | 439 kts | 294° |
| 2026-05-07 19:53 | 60.15102 | -31.10475 | 34379 ft | 438 kts | 293° |
| 2026-05-07 19:54 | 60.16657 | -31.22299 | 34385 ft | 438 kts | 293° |
| 2026-05-07 19:54 | 60.18201 | -31.34134 | 34382 ft | 438 kts | 293° |
| 2026-05-07 19:55 | 60.19736 | -31.45989 | 34389 ft | 438 kts | 293° |
| 2026-05-07 19:55 | 60.21261 | -31.57870 | 34389 ft | 439 kts | 293° |
| 2026-05-07 19:56 | 60.22775 | -31.69752 | 34381 ft | 438 kts | 293° |
| 2026-05-07 19:56 | 60.24273 | -31.81615 | 34388 ft | 437 kts | 293° |
| 2026-05-07 19:57 | 60.25761 | -31.93482 | 34395 ft | 437 kts | 293° |
| 2026-05-07 19:57 | 60.27238 | -32.05355 | 34397 ft | 437 kts | 293° |
| 2026-05-07 19:58 | 60.28707 | -32.17259 | 34396 ft | 438 kts | 292° |
| 2026-05-07 19:58 | 60.30165 | -32.29175 | 34402 ft | 438 kts | 292° |
| 2026-05-07 19:59 | 60.31613 | -32.41114 | 34402 ft | 438 kts | 292° |
| 2026-05-07 19:59 | 60.32810 | -32.51051 | 34402 ft | 438 kts | 292° |
| 2026-05-07 20:00 | 60.33766 | -32.59041 | 34298 ft | 438 kts | 291° |
| 2026-05-07 20:00 | 60.34468 | -32.64945 | 34351 ft | 438 kts | 291° |
| 2026-05-07 20:00 | 60.35884 | -32.76900 | 34398 ft | 438 kts | 291° |
| 2026-05-07 20:01 | 60.37294 | -32.88900 | 34402 ft | 440 kts | 291° |
| 2026-05-07 20:01 | 60.38472 | -32.99013 | 34405 ft | 442 kts | 291° |
| 2026-05-07 20:02 | 60.39861 | -33.11041 | 34401 ft | 443 kts | 291° |
| 2026-05-07 20:02 | 60.41250 | -33.23177 | 34400 ft | 443 kts | 291° |
| 2026-05-07 20:03 | 60.42629 | -33.35339 | 34400 ft | 443 kts | 291° |
| 2026-05-07 20:03 | 60.43996 | -33.47493 | 34398 ft | 443 kts | 291° |
| 2026-05-07 20:04 | 60.45351 | -33.59651 | 34356 ft | 442 kts | 290° |
| 2026-05-07 20:04 | 60.46691 | -33.71785 | 34393 ft | 441 kts | 290° |
| 2026-05-07 20:05 | 60.48022 | -33.83935 | 34408 ft | 442 kts | 290° |
| 2026-05-07 20:05 | 60.49343 | -33.96106 | 34404 ft | 442 kts | 290° |
| 2026-05-07 20:06 | 60.50655 | -34.08309 | 34403 ft | 443 kts | 289° |
| 2026-05-07 20:06 | 60.51956 | -34.20532 | 34402 ft | 444 kts | 289° |
| 2026-05-07 20:07 | 60.53241 | -34.32705 | 34373 ft | 444 kts | 289° |
| 2026-05-07 20:07 | 60.54523 | -34.44977 | 34400 ft | 445 kts | 289° |
| 2026-05-07 20:08 | 60.55798 | -34.57295 | 34366 ft | 446 kts | 288° |
| 2026-05-07 20:08 | 60.57062 | -34.69632 | 34390 ft | 446 kts | 288° |
| 2026-05-07 20:09 | 60.58318 | -34.82006 | 34406 ft | 448 kts | 288° |
| 2026-05-07 20:10 | 60.60186 | -35.00647 | 34400 ft | 449 kts | 287° |
| 2026-05-07 20:10 | 60.61419 | -35.13104 | 34392 ft | 449 kts | 287° |
| 2026-05-07 20:11 | 60.62638 | -35.25556 | 34385 ft | 449 kts | 287° |
| 2026-05-07 20:11 | 60.63847 | -35.38022 | 34394 ft | 448 kts | 287° |
| 2026-05-07 20:12 | 60.65045 | -35.50501 | 34387 ft | 449 kts | 287° |
| 2026-05-07 20:12 | 60.66229 | -35.62976 | 34386 ft | 448 kts | 285° |
| 2026-05-07 20:13 | 60.67397 | -35.75402 | 34390 ft | 450 kts | 285° |
| 2026-05-07 20:13 | 60.68564 | -35.87944 | 34390 ft | 451 kts | 285° |
| 2026-05-07 20:14 | 60.69722 | -36.00536 | 34392 ft | 452 kts | 285° |
| 2026-05-07 20:14 | 60.70870 | -36.13159 | 34367 ft | 452 kts | 284° |
| 2026-05-07 20:15 | 60.72007 | -36.25804 | 34380 ft | 453 kts | 284° |
| 2026-05-07 20:15 | 60.73134 | -36.38472 | 34384 ft | 453 kts | 284° |
| 2026-05-07 20:16 | 60.74249 | -36.51151 | 34379 ft | 454 kts | 284° |
| 2026-05-07 20:16 | 60.75353 | -36.63849 | 34373 ft | 453 kts | 283° |
| 2026-05-07 20:17 | 60.76444 | -36.76547 | 34388 ft | 454 kts | 283° |
| 2026-05-07 20:17 | 60.77525 | -36.89272 | 34374 ft | 454 kts | 283° |
| 2026-05-07 20:18 | 60.78594 | -37.02010 | 34368 ft | 454 kts | 282° |
| 2026-05-07 20:18 | 60.79644 | -37.14678 | 34386 ft | 454 kts | 282° |
| 2026-05-07 20:19 | 60.80689 | -37.27436 | 34378 ft | 455 kts | 282° |
| 2026-05-07 20:19 | 60.81725 | -37.40231 | 34361 ft | 455 kts | 282° |
| 2026-05-07 20:20 | 60.82748 | -37.53036 | 34367 ft | 455 kts | 282° |
| 2026-05-07 20:20 | 60.83759 | -37.65844 | 34372 ft | 455 kts | 282° |
| 2026-05-07 20:21 | 60.84759 | -37.78672 | 34376 ft | 455 kts | 281° |
| 2026-05-07 20:21 | 60.85745 | -37.91497 | 34346 ft | 455 kts | 281° |
| 2026-05-07 20:22 | 60.86720 | -38.04340 | 34362 ft | 455 kts | 281° |
| 2026-05-07 20:22 | 60.87683 | -38.17192 | 34357 ft | 456 kts | 281° |
| 2026-05-07 20:23 | 60.88633 | -38.30047 | 34363 ft | 456 kts | 281° |
| 2026-05-07 20:23 | 60.89573 | -38.42934 | 34353 ft | 456 kts | 280° |
| 2026-05-07 20:24 | 60.90494 | -38.55726 | 34328 ft | 456 kts | 280° |
| 2026-05-07 20:24 | 60.91407 | -38.68600 | 34350 ft | 455 kts | 280° |
| 2026-05-07 20:25 | 60.92305 | -38.81454 | 34341 ft | 454 kts | 279° |
| 2026-05-07 20:25 | 60.93191 | -38.94302 | 34352 ft | 453 kts | 279° |
| 2026-05-07 20:26 | 60.94064 | -39.07145 | 34341 ft | 453 kts | 279° |
| 2026-05-07 20:26 | 60.94924 | -39.19982 | 34348 ft | 453 kts | 279° |
| 2026-05-07 20:27 | 60.95541 | -39.29304 | 34344 ft | 453 kts | 279° |
| 2026-05-07 20:27 | 60.96379 | -39.42149 | 34339 ft | 453 kts | 279° |
| 2026-05-07 20:28 | 60.97206 | -39.55012 | 34322 ft | 453 kts | 279° |
| 2026-05-07 20:28 | 60.98017 | -39.67830 | 34333 ft | 450 kts | 279° |
| 2026-05-07 20:29 | 60.98811 | -39.80559 | 34320 ft | 446 kts | 279° |
| 2026-05-07 20:29 | 60.99589 | -39.93200 | 34328 ft | 444 kts | 279° |
| 2026-05-07 20:30 | 61.00715 | -40.05625 | 34321 ft | 439 kts | 288° |
| 2026-05-07 20:30 | 61.02425 | -40.17602 | 34324 ft | 439 kts | 288° |
| 2026-05-07 20:31 | 61.04130 | -40.29688 | 34328 ft | 439 kts | 288° |
| 2026-05-07 20:31 | 61.05815 | -40.41839 | 34321 ft | 441 kts | 287° |
| 2026-05-07 20:32 | 61.07488 | -40.54059 | 34315 ft | 443 kts | 287° |
| 2026-05-07 20:32 | 61.09151 | -40.66321 | 34320 ft | 444 kts | 287° |
| 2026-05-07 20:33 | 61.10805 | -40.78610 | 34308 ft | 444 kts | 287° |
| 2026-05-07 20:33 | 61.12450 | -40.90923 | 34313 ft | 444 kts | 287° |
| 2026-05-07 20:34 | 61.14083 | -41.03240 | 34309 ft | 444 kts | 287° |
| 2026-05-07 20:34 | 61.15703 | -41.15561 | 34310 ft | 443 kts | 287° |
| 2026-05-07 20:35 | 61.17312 | -41.27888 | 34308 ft | 443 kts | 287° |
| 2026-05-07 20:35 | 61.18906 | -41.40209 | 34304 ft | 442 kts | 286° |
| 2026-05-07 20:36 | 61.20487 | -41.52521 | 34295 ft | 442 kts | 286° |
| 2026-05-07 20:36 | 61.22056 | -41.64835 | 34293 ft | 441 kts | 286° |
| 2026-05-07 20:37 | 61.23600 | -41.77058 | 34296 ft | 440 kts | 285° |
| 2026-05-07 20:37 | 61.25153 | -41.89448 | 34295 ft | 440 kts | 285° |
| 2026-05-07 20:38 | 61.26673 | -42.01680 | 34280 ft | 440 kts | 285° |
| 2026-05-07 20:38 | 61.28191 | -42.13998 | 34289 ft | 440 kts | 285° |
| 2026-05-07 20:39 | 61.29698 | -42.26326 | 34284 ft | 440 kts | 285° |
| 2026-05-07 20:39 | 61.31196 | -42.38687 | 34282 ft | 441 kts | 285° |
| 2026-05-07 20:40 | 61.32685 | -42.51068 | 34284 ft | 441 kts | 284° |
| 2026-05-07 20:40 | 61.34162 | -42.63469 | 34287 ft | 441 kts | 284° |
| 2026-05-07 20:41 | 61.35628 | -42.75880 | 34284 ft | 441 kts | 284° |
| 2026-05-07 20:41 | 61.37085 | -42.88313 | 34288 ft | 441 kts | 284° |
| 2026-05-07 20:42 | 61.38529 | -43.00754 | 34277 ft | 441 kts | 283° |
| 2026-05-07 20:42 | 61.39957 | -43.13169 | 34275 ft | 440 kts | 283° |
| 2026-05-07 20:43 | 61.41375 | -43.25594 | 34246 ft | 439 kts | 283° |
| 2026-05-07 20:43 | 61.42778 | -43.38005 | 34258 ft | 439 kts | 283° |
| 2026-05-07 20:44 | 61.44168 | -43.50412 | 34261 ft | 438 kts | 283° |
| 2026-05-07 20:44 | 61.45546 | -43.62828 | 34230 ft | 438 kts | 283° |
| 2026-05-07 20:45 | 61.46913 | -43.75242 | 34238 ft | 438 kts | 282° |
| 2026-05-07 20:45 | 61.48257 | -43.87581 | 34203 ft | 438 kts | 282° |
| 2026-05-07 20:46 | 61.49600 | -44.00012 | 34205 ft | 438 kts | 282° |
| 2026-05-07 20:46 | 61.50930 | -44.12444 | 34204 ft | 437 kts | 282° |
| 2026-05-07 20:47 | 61.52248 | -44.24872 | 34199 ft | 437 kts | 282° |
| 2026-05-07 20:47 | 61.53556 | -44.37326 | 34206 ft | 437 kts | 282° |
| 2026-05-07 20:48 | 61.54852 | -44.49787 | 34220 ft | 438 kts | 281° |
| 2026-05-07 20:48 | 61.56137 | -44.62253 | 34207 ft | 436 kts | 281° |
| 2026-05-07 20:49 | 61.57405 | -44.74680 | 34209 ft | 435 kts | 281° |
| 2026-05-07 20:49 | 61.58658 | -44.87084 | 34217 ft | 434 kts | 281° |
| 2026-05-07 20:50 | 61.59898 | -44.99479 | 34212 ft | 433 kts | 280° |
| 2026-05-07 20:50 | 61.61124 | -45.11861 | 34217 ft | 432 kts | 280° |
| 2026-05-07 20:51 | 61.62338 | -45.24234 | 34215 ft | 432 kts | 280° |
| 2026-05-07 20:51 | 61.63533 | -45.36545 | 34229 ft | 432 kts | 279° |
| 2026-05-07 20:52 | 61.64724 | -45.48933 | 34218 ft | 432 kts | 279° |
| 2026-05-07 20:52 | 61.65902 | -45.61314 | 34223 ft | 431 kts | 279° |
| 2026-05-07 20:53 | 61.67069 | -45.73697 | 34222 ft | 431 kts | 279° |
| 2026-05-07 20:53 | 61.68223 | -45.86075 | 34233 ft | 431 kts | 279° |
| 2026-05-07 20:54 | 61.69364 | -45.98444 | 34229 ft | 430 kts | 278° |
| 2026-05-07 20:54 | 61.70493 | -46.10821 | 34245 ft | 430 kts | 278° |
| 2026-05-07 20:55 | 61.71611 | -46.23197 | 34231 ft | 429 kts | 278° |
| 2026-05-07 20:55 | 61.72716 | -46.35566 | 34231 ft | 429 kts | 278° |
| 2026-05-07 20:56 | 61.73624 | -46.45838 | 34223 ft | 428 kts | 278° |
| 2026-05-07 20:56 | 61.74705 | -46.58175 | 34222 ft | 427 kts | 277° |
| 2026-05-07 20:57 | 61.75773 | -46.70509 | 34223 ft | 427 kts | 277° |
| 2026-05-07 20:57 | 61.76830 | -46.82848 | 34225 ft | 427 kts | 277° |
| 2026-05-07 20:58 | 61.77875 | -46.95191 | 34237 ft | 426 kts | 277° |
| 2026-05-07 20:58 | 61.78908 | -47.07520 | 34218 ft | 425 kts | 277° |
| 2026-05-07 20:59 | 61.79926 | -47.19815 | 34200 ft | 424 kts | 278° |
| 2026-05-07 20:59 | 61.80928 | -47.32067 | 34193 ft | 422 kts | 278° |
| 2026-05-07 21:00 | 61.81919 | -47.44297 | 34179 ft | 421 kts | 278° |
| 2026-05-07 21:00 | 61.82893 | -47.56497 | 34187 ft | 420 kts | 277° |
| 2026-05-07 21:01 | 61.83858 | -47.68691 | 34188 ft | 420 kts | 277° |
| 2026-05-07 21:01 | 61.84805 | -47.80819 | 34179 ft | 421 kts | 277° |
| 2026-05-07 21:02 | 61.85747 | -47.93024 | 34175 ft | 419 kts | 277° |
| 2026-05-07 21:02 | 61.86674 | -48.05192 | 34173 ft | 418 kts | 277° |
| 2026-05-07 21:03 | 61.87588 | -48.17325 | 34159 ft | 417 kts | 277° |
| 2026-05-07 21:03 | 61.88490 | -48.29447 | 34173 ft | 416 kts | 277° |
| 2026-05-07 21:04 | 61.89379 | -48.41554 | 34171 ft | 416 kts | 277° |
| 2026-05-07 21:04 | 61.90258 | -48.53678 | 34151 ft | 416 kts | 277° |
| 2026-05-07 21:05 | 61.91128 | -48.65805 | 34164 ft | 415 kts | 276° |
| 2026-05-07 21:05 | 61.91982 | -48.77890 | 34150 ft | 413 kts | 276° |
| 2026-05-07 21:06 | 61.92823 | -48.89936 | 34159 ft | 412 kts | 275° |
| 2026-05-07 21:06 | 61.93651 | -49.01950 | 34152 ft | 411 kts | 275° |
| 2026-05-07 21:07 | 61.94465 | -49.13931 | 34162 ft | 410 kts | 275° |
| 2026-05-07 21:07 | 61.95268 | -49.25923 | 34163 ft | 410 kts | 275° |
| 2026-05-07 21:08 | 61.96058 | -49.37849 | 34144 ft | 411 kts | 275° |
| 2026-05-07 21:08 | 61.96844 | -49.49887 | 34159 ft | 411 kts | 275° |
| 2026-05-07 21:09 | 61.97620 | -49.61930 | 34145 ft | 411 kts | 274° |
| 2026-05-07 21:09 | 61.98385 | -49.73969 | 34141 ft | 411 kts | 274° |
| 2026-05-07 21:10 | 61.99139 | -49.85995 | 34147 ft | 410 kts | 274° |
| 2026-05-07 21:10 | 61.99542 | -49.98036 | 34146 ft | 406 kts | 266° |
| 2026-05-07 21:11 | 61.99048 | -50.09976 | 34137 ft | 405 kts | 259° |
| 2026-05-07 21:11 | 61.97330 | -50.27533 | 34140 ft | 405 kts | 257° |
| 2026-05-07 21:12 | 61.96149 | -50.39232 | 34138 ft | 405 kts | 257° |
| 2026-05-07 21:12 | 61.94970 | -50.50949 | 34137 ft | 406 kts | 257° |
| 2026-05-07 21:13 | 61.93785 | -50.62680 | 34131 ft | 406 kts | 257° |
| 2026-05-07 21:13 | 61.92592 | -50.74411 | 34130 ft | 407 kts | 257° |
| 2026-05-07 21:14 | 61.91388 | -50.86140 | 34127 ft | 406 kts | 257° |
| 2026-05-07 21:14 | 61.90176 | -50.97844 | 34124 ft | 406 kts | 257° |
| 2026-05-07 21:15 | 61.88955 | -51.09528 | 34127 ft | 405 kts | 257° |
| 2026-05-07 21:15 | 61.87726 | -51.21183 | 34116 ft | 405 kts | 256° |
| 2026-05-07 21:16 | 61.86488 | -51.32824 | 34119 ft | 405 kts | 256° |
| 2026-05-07 21:16 | 61.85242 | -51.44440 | 34151 ft | 404 kts | 256° |
| 2026-05-07 21:17 | 61.83986 | -51.56048 | 34110 ft | 404 kts | 256° |
| 2026-05-07 21:17 | 61.82734 | -51.67523 | 34099 ft | 402 kts | 255° |
| 2026-05-07 21:18 | 61.81466 | -51.79035 | 34100 ft | 401 kts | 255° |
| 2026-05-07 21:18 | 61.80194 | -51.90497 | 34098 ft | 400 kts | 255° |
| 2026-05-07 21:19 | 61.78913 | -52.01941 | 34089 ft | 400 kts | 255° |
| 2026-05-07 21:19 | 61.77623 | -52.13371 | 34089 ft | 400 kts | 255° |
| 2026-05-07 21:20 | 61.76320 | -52.24818 | 34083 ft | 401 kts | 255° |
| 2026-05-07 21:20 | 61.75008 | -52.36261 | 34085 ft | 402 kts | 255° |
| 2026-05-07 21:21 | 61.73682 | -52.47723 | 34077 ft | 402 kts | 255° |
| 2026-05-07 21:21 | 61.72345 | -52.59191 | 34063 ft | 403 kts | 254° |
| 2026-05-07 21:22 | 61.70998 | -52.70662 | 34062 ft | 404 kts | 253° |
| 2026-05-07 21:22 | 61.69641 | -52.82116 | 34068 ft | 402 kts | 253° |
| 2026-05-07 21:23 | 61.68278 | -52.93530 | 34059 ft | 401 kts | 253° |
| 2026-05-07 21:23 | 61.66912 | -53.04891 | 34056 ft | 400 kts | 253° |
| 2026-05-07 21:24 | 61.65538 | -53.16221 | 34057 ft | 399 kts | 253° |
| 2026-05-07 21:24 | 61.64157 | -53.27522 | 34044 ft | 399 kts | 253° |
| 2026-05-07 21:25 | 61.62768 | -53.38801 | 34053 ft | 399 kts | 252° |
| 2026-05-07 21:25 | 61.61368 | -53.50086 | 34052 ft | 399 kts | 252° |
| 2026-05-07 21:26 | 61.59957 | -53.61369 | 34038 ft | 400 kts | 252° |
| 2026-05-07 21:26 | 61.58543 | -53.72597 | 34036 ft | 401 kts | 252° |
| 2026-05-07 21:27 | 61.57107 | -53.83915 | 34043 ft | 402 kts | 252° |
| 2026-05-07 21:27 | 61.55663 | -53.95214 | 34027 ft | 401 kts | 252° |
| 2026-05-07 21:28 | 61.54213 | -54.06483 | 34025 ft | 400 kts | 251° |
| 2026-05-07 21:28 | 61.52757 | -54.17709 | 34026 ft | 399 kts | 251° |
| 2026-05-07 21:29 | 61.51296 | -54.28894 | 34013 ft | 398 kts | 251° |
| 2026-05-07 21:29 | 61.49825 | -54.40068 | 34020 ft | 398 kts | 251° |
| 2026-05-07 21:30 | 61.48344 | -54.51237 | 34019 ft | 398 kts | 251° |
| 2026-05-07 21:30 | 61.46853 | -54.62408 | 34011 ft | 399 kts | 251° |
| 2026-05-07 21:31 | 61.45352 | -54.73573 | 34006 ft | 399 kts | 251° |
| 2026-05-07 21:31 | 61.43839 | -54.84749 | 34005 ft | 400 kts | 251° |
| 2026-05-07 21:32 | 61.42314 | -54.95934 | 34010 ft | 401 kts | 250° |
| 2026-05-07 21:32 | 61.40791 | -55.07033 | 33989 ft | 400 kts | 250° |
| 2026-05-07 21:33 | 61.39252 | -55.18168 | 34001 ft | 399 kts | 249° |
| 2026-05-07 21:33 | 61.37705 | -55.29287 | 33998 ft | 399 kts | 249° |
| 2026-05-07 21:34 | 61.36150 | -55.40379 | 33996 ft | 399 kts | 249° |
| 2026-05-07 21:34 | 61.34586 | -55.51465 | 33999 ft | 399 kts | 249° |
| 2026-05-07 21:35 | 61.33013 | -55.62540 | 33971 ft | 399 kts | 249° |
| 2026-05-07 21:35 | 61.31430 | -55.73607 | 33969 ft | 399 kts | 249° |
| 2026-05-07 21:36 | 61.29839 | -55.84660 | 33970 ft | 399 kts | 249° |
| 2026-05-07 21:36 | 61.28236 | -55.95721 | 33979 ft | 400 kts | 249° |
| 2026-05-07 21:37 | 61.26618 | -56.06812 | 33980 ft | 402 kts | 248° |
| 2026-05-07 21:37 | 61.24988 | -56.17915 | 33967 ft | 402 kts | 248° |
| 2026-05-07 21:38 | 61.23350 | -56.28995 | 33960 ft | 401 kts | 248° |
| 2026-05-07 21:38 | 61.21704 | -56.40066 | 33957 ft | 401 kts | 248° |
| 2026-05-07 21:39 | 61.20052 | -56.51094 | 33953 ft | 400 kts | 248° |
| 2026-05-07 21:39 | 61.18392 | -56.62107 | 33946 ft | 400 kts | 248° |
| 2026-05-07 21:40 | 61.16726 | -56.73092 | 33934 ft | 400 kts | 247° |
| 2026-05-07 21:40 | 61.15048 | -56.84083 | 33949 ft | 400 kts | 247° |
| 2026-05-07 21:41 | 61.13357 | -56.95085 | 33937 ft | 401 kts | 247° |
| 2026-05-07 21:41 | 61.11654 | -57.06101 | 33990 ft | 402 kts | 246° |
| 2026-05-07 21:42 | 61.09937 | -57.17139 | 33946 ft | 403 kts | 246° |
| 2026-05-07 21:42 | 61.08212 | -57.28156 | 33926 ft | 403 kts | 246° |
| 2026-05-07 21:43 | 61.06480 | -57.39153 | 33925 ft | 402 kts | 246° |
| 2026-05-07 21:43 | 61.04754 | -57.50043 | 33925 ft | 401 kts | 246° |
| 2026-05-07 21:44 | 61.03011 | -57.60974 | 33919 ft | 401 kts | 245° |
| 2026-05-07 21:44 | 61.01257 | -57.71901 | 33916 ft | 401 kts | 245° |
| 2026-05-07 21:45 | 60.99495 | -57.82826 | 33918 ft | 402 kts | 245° |
| 2026-05-07 21:45 | 60.97785 | -57.93803 | 33915 ft | 406 kts | 250° |
| 2026-05-07 21:46 | 60.96855 | -58.05360 | 33922 ft | 413 kts | 256° |
| 2026-05-07 21:46 | 60.96675 | -58.17303 | 33915 ft | 420 kts | 262° |
| 2026-05-07 21:47 | 60.96716 | -58.27307 | 33910 ft | 421 kts | 262° |
| 2026-05-07 21:47 | 60.96766 | -58.41308 | 33902 ft | 420 kts | 262° |
| 2026-05-07 21:48 | 60.96782 | -58.53323 | 33899 ft | 420 kts | 261° |
| 2026-05-07 21:48 | 60.96779 | -58.63387 | 33902 ft | 419 kts | 261° |
| 2026-05-07 21:49 | 60.96764 | -58.75373 | 33895 ft | 419 kts | 261° |
| 2026-05-07 21:49 | 60.96738 | -58.87357 | 33892 ft | 418 kts | 261° |
| 2026-05-07 21:50 | 60.96702 | -58.99337 | 33903 ft | 419 kts | 262° |
| 2026-05-07 21:50 | 60.96653 | -59.11342 | 33894 ft | 419 kts | 262° |
| 2026-05-07 21:51 | 60.96595 | -59.23270 | 33886 ft | 419 kts | 261° |
| 2026-05-07 21:51 | 60.96527 | -59.35267 | 33881 ft | 419 kts | 261° |
| 2026-05-07 21:52 | 60.96448 | -59.47271 | 33876 ft | 419 kts | 261° |
| 2026-05-07 21:52 | 60.96358 | -59.59274 | 33879 ft | 419 kts | 261° |
| 2026-05-07 21:53 | 60.96258 | -59.71272 | 33946 ft | 420 kts | 261° |
| 2026-05-07 21:53 | 60.96202 | -59.77320 | 34056 ft | 424 kts | 262° |
| 2026-05-07 21:53 | 60.96142 | -59.83411 | 34235 ft | 427 kts | 262° |
| 2026-05-07 21:54 | 60.96079 | -59.89552 | 34399 ft | 431 kts | 262° |
| 2026-05-07 21:54 | 60.96014 | -59.95724 | 34561 ft | 434 kts | 262° |
| 2026-05-07 21:54 | 60.95946 | -60.01953 | 34735 ft | 436 kts | 262° |
| 2026-05-07 21:54 | 60.95875 | -60.08219 | 34889 ft | 439 kts | 262° |
| 2026-05-07 21:55 | 60.95801 | -60.14514 | 35041 ft | 442 kts | 262° |
| 2026-05-07 21:55 | 60.95724 | -60.20837 | 35187 ft | 444 kts | 262° |
| 2026-05-07 21:55 | 60.95643 | -60.27211 | 35329 ft | 447 kts | 262° |
| 2026-05-07 21:55 | 60.95559 | -60.33612 | 35472 ft | 449 kts | 262° |
| 2026-05-07 21:56 | 60.95471 | -60.40053 | 35580 ft | 451 kts | 262° |
| 2026-05-07 21:56 | 60.95380 | -60.46517 | 35706 ft | 453 kts | 262° |
| 2026-05-07 21:56 | 60.95186 | -60.59572 | 35830 ft | 459 kts | 262° |
| 2026-05-07 21:57 | 60.94981 | -60.72686 | 35842 ft | 457 kts | 262° |
| 2026-05-07 21:57 | 60.94765 | -60.85716 | 35850 ft | 455 kts | 262° |
| 2026-05-07 21:58 | 60.94536 | -60.98608 | 35851 ft | 453 kts | 262° |
| 2026-05-07 21:58 | 60.94291 | -61.11632 | 35851 ft | 453 kts | 262° |
| 2026-05-07 21:59 | 60.94034 | -61.24596 | 35853 ft | 454 kts | 262° |
| 2026-05-07 21:59 | 60.93764 | -61.37593 | 35866 ft | 457 kts | 262° |
| 2026-05-07 22:00 | 60.93492 | -61.50404 | 35834 ft | 443 kts | 261° |
| 2026-05-07 22:00 | 60.93214 | -61.62925 | 35844 ft | 437 kts | 261° |
| 2026-05-07 22:01 | 60.92916 | -61.75409 | 35848 ft | 437 kts | 261° |
| 2026-05-07 22:01 | 60.92607 | -61.87905 | 35845 ft | 438 kts | 261° |
| 2026-05-07 22:02 | 60.92288 | -62.00425 | 35839 ft | 439 kts | 261° |
| 2026-05-07 22:02 | 60.91959 | -62.12945 | 35880 ft | 439 kts | 261° |
| 2026-05-07 22:03 | 60.91617 | -62.25499 | 35848 ft | 440 kts | 261° |
| 2026-05-07 22:03 | 60.91262 | -62.38085 | 35839 ft | 441 kts | 261° |
| 2026-05-07 22:04 | 60.90895 | -62.50672 | 35840 ft | 442 kts | 261° |
| 2026-05-07 22:04 | 60.90516 | -62.63293 | 35832 ft | 443 kts | 261° |
| 2026-05-07 22:05 | 60.90125 | -62.75923 | 35831 ft | 443 kts | 260° |
| 2026-05-07 22:05 | 60.89724 | -62.88476 | 35831 ft | 443 kts | 260° |
| 2026-05-07 22:06 | 60.89308 | -63.01117 | 35836 ft | 444 kts | 261° |
| 2026-05-07 22:06 | 60.88879 | -63.13778 | 35823 ft | 445 kts | 261° |
| 2026-05-07 22:07 | 60.88439 | -63.26440 | 35825 ft | 445 kts | 261° |
| 2026-05-07 22:07 | 60.87987 | -63.39104 | 35826 ft | 444 kts | 260° |
| 2026-05-07 22:08 | 60.87523 | -63.51746 | 35812 ft | 444 kts | 260° |
| 2026-05-07 22:08 | 60.87047 | -63.64384 | 35813 ft | 444 kts | 260° |
| 2026-05-07 22:09 | 60.86560 | -63.77005 | 35838 ft | 444 kts | 260° |
| 2026-05-07 22:09 | 60.86059 | -63.89665 | 35831 ft | 446 kts | 260° |
| 2026-05-07 22:10 | 60.85545 | -64.02349 | 35827 ft | 447 kts | 260° |
| 2026-05-07 22:10 | 60.85018 | -64.15068 | 35820 ft | 448 kts | 260° |
| 2026-05-07 22:11 | 60.84479 | -64.27801 | 35817 ft | 448 kts | 260° |
| 2026-05-07 22:11 | 60.83930 | -64.40450 | 35816 ft | 449 kts | 259° |
| 2026-05-07 22:12 | 60.83366 | -64.53189 | 35852 ft | 449 kts | 259° |
| 2026-05-07 22:12 | 60.82788 | -64.65954 | 35825 ft | 450 kts | 260° |
| 2026-05-07 22:13 | 60.82197 | -64.78729 | 35823 ft | 451 kts | 259° |
| 2026-05-07 22:13 | 60.81593 | -64.91520 | 35819 ft | 451 kts | 259° |
| 2026-05-07 22:14 | 60.80976 | -65.04324 | 35822 ft | 451 kts | 259° |
| 2026-05-07 22:14 | 60.80348 | -65.17123 | 35827 ft | 452 kts | 259° |
| 2026-05-07 22:15 | 60.79707 | -65.29909 | 35820 ft | 451 kts | 259° |
| 2026-05-07 22:15 | 60.79053 | -65.42697 | 35827 ft | 452 kts | 259° |
| 2026-05-07 22:16 | 60.78387 | -65.55489 | 35818 ft | 452 kts | 259° |
| 2026-05-07 22:16 | 60.77708 | -65.68301 | 35814 ft | 453 kts | 259° |
| 2026-05-07 22:17 | 60.77016 | -65.81115 | 35813 ft | 453 kts | 259° |
| 2026-05-07 22:17 | 60.76316 | -65.93847 | 35818 ft | 454 kts | 259° |
| 2026-05-07 22:18 | 60.75235 | -66.13082 | 35841 ft | 454 kts | 259° |
| 2026-05-07 22:19 | 60.74496 | -66.25935 | 35817 ft | 456 kts | 259° |
| 2026-05-07 22:19 | 60.73742 | -66.38839 | 35822 ft | 458 kts | 259° |
| 2026-05-07 22:20 | 60.72974 | -66.51781 | 35812 ft | 460 kts | 259° |
| 2026-05-07 22:20 | 60.72190 | -66.64759 | 35811 ft | 461 kts | 258° |
| 2026-05-07 22:21 | 60.71392 | -66.77775 | 35805 ft | 462 kts | 258° |
| 2026-05-07 22:21 | 60.70583 | -66.90785 | 35805 ft | 462 kts | 258° |
| 2026-05-07 22:22 | 60.69756 | -67.03810 | 35812 ft | 463 kts | 258° |
| 2026-05-07 22:22 | 60.68899 | -67.16846 | 35802 ft | 464 kts | 258° |
| 2026-05-07 22:23 | 60.68026 | -67.29879 | 35800 ft | 464 kts | 258° |
| 2026-05-07 22:23 | 60.67143 | -67.42920 | 35795 ft | 464 kts | 258° |
| 2026-05-07 22:24 | 60.66248 | -67.55958 | 35794 ft | 464 kts | 258° |
| 2026-05-07 22:24 | 60.65342 | -67.68975 | 35802 ft | 464 kts | 258° |
| 2026-05-07 22:25 | 60.64428 | -67.81910 | 35796 ft | 465 kts | 258° |
| 2026-05-07 22:25 | 60.63495 | -67.94938 | 35794 ft | 465 kts | 258° |
| 2026-05-07 22:26 | 60.62549 | -68.07967 | 35787 ft | 465 kts | 258° |
| 2026-05-07 22:26 | 60.61589 | -68.21000 | 35785 ft | 465 kts | 258° |
| 2026-05-07 22:27 | 60.60617 | -68.34015 | 35783 ft | 465 kts | 258° |
| 2026-05-07 22:27 | 60.59632 | -68.47030 | 35782 ft | 465 kts | 258° |
| 2026-05-07 22:28 | 60.58634 | -68.60037 | 35777 ft | 465 kts | 257° |
| 2026-05-07 22:28 | 60.57624 | -68.73023 | 35773 ft | 465 kts | 257° |
| 2026-05-07 22:29 | 60.56602 | -68.86010 | 35774 ft | 465 kts | 257° |
| 2026-05-07 22:29 | 60.55567 | -68.98981 | 35784 ft | 465 kts | 257° |
| 2026-05-07 22:30 | 60.54520 | -69.11933 | 35780 ft | 465 kts | 257° |
| 2026-05-07 22:30 | 60.53468 | -69.24796 | 35785 ft | 465 kts | 257° |
| 2026-05-07 22:31 | 60.52395 | -69.37746 | 35771 ft | 466 kts | 257° |
| 2026-05-07 22:31 | 60.51307 | -69.50716 | 35771 ft | 466 kts | 257° |
| 2026-05-07 22:32 | 60.50206 | -69.63695 | 35763 ft | 467 kts | 257° |
| 2026-05-07 22:32 | 60.49090 | -69.76686 | 35761 ft | 468 kts | 257° |
| 2026-05-07 22:33 | 60.47960 | -69.89683 | 35754 ft | 468 kts | 257° |
| 2026-05-07 22:33 | 60.46816 | -70.02680 | 35752 ft | 469 kts | 256° |
| 2026-05-07 22:34 | 60.45659 | -70.15683 | 35764 ft | 469 kts | 257° |
| 2026-05-07 22:34 | 60.44486 | -70.28707 | 35758 ft | 470 kts | 257° |
| 2026-05-07 22:35 | 60.43299 | -70.41735 | 35742 ft | 471 kts | 256° |
| 2026-05-07 22:35 | 60.42100 | -70.54752 | 35737 ft | 470 kts | 256° |
| 2026-05-07 22:36 | 60.40888 | -70.67762 | 35736 ft | 470 kts | 256° |
| 2026-05-07 22:36 | 60.39665 | -70.80745 | 35736 ft | 470 kts | 256° |
| 2026-05-07 22:37 | 60.38428 | -70.93728 | 35739 ft | 470 kts | 256° |
| 2026-05-07 22:37 | 60.37178 | -71.06703 | 35734 ft | 470 kts | 256° |
| 2026-05-07 22:38 | 60.35916 | -71.19669 | 35725 ft | 470 kts | 256° |
| 2026-05-07 22:38 | 60.34649 | -71.32540 | 35726 ft | 470 kts | 256° |
| 2026-05-07 22:39 | 60.33362 | -71.45480 | 35722 ft | 470 kts | 256° |
| 2026-05-07 22:39 | 60.32061 | -71.58429 | 35724 ft | 470 kts | 256° |
| 2026-05-07 22:40 | 60.30747 | -71.71365 | 35725 ft | 471 kts | 256° |
| 2026-05-07 22:40 | 60.29418 | -71.84310 | 35715 ft | 472 kts | 256° |
| 2026-05-07 22:41 | 60.28075 | -71.97267 | 35720 ft | 473 kts | 255° |
| 2026-05-07 22:41 | 60.26948 | -72.08044 | 35702 ft | 473 kts | 255° |
| 2026-05-07 22:42 | 60.25349 | -72.23173 | 35715 ft | 473 kts | 255° |
| 2026-05-07 22:42 | 60.24200 | -72.33930 | 35710 ft | 473 kts | 255° |
| 2026-05-07 22:43 | 60.22806 | -72.46866 | 35707 ft | 473 kts | 255° |
| 2026-05-07 22:43 | 60.21400 | -72.59797 | 35709 ft | 473 kts | 255° |
| 2026-05-07 22:44 | 60.19980 | -72.72714 | 35715 ft | 473 kts | 255° |
| 2026-05-07 22:44 | 60.18547 | -72.85637 | 35707 ft | 474 kts | 255° |
| 2026-05-07 22:45 | 60.17101 | -72.98544 | 35706 ft | 474 kts | 255° |
| 2026-05-07 22:45 | 60.15643 | -73.11442 | 35723 ft | 473 kts | 255° |
| 2026-05-07 22:46 | 60.14172 | -73.24329 | 35709 ft | 474 kts | 255° |
| 2026-05-07 22:46 | 60.12689 | -73.37198 | 35704 ft | 473 kts | 255° |
| 2026-05-07 22:47 | 60.11194 | -73.50052 | 35705 ft | 473 kts | 255° |
| 2026-05-07 22:47 | 60.09686 | -73.62901 | 35701 ft | 473 kts | 255° |
| 2026-05-07 22:48 | 60.08166 | -73.75731 | 35702 ft | 473 kts | 254° |
| 2026-05-07 22:48 | 60.06632 | -73.88564 | 35712 ft | 474 kts | 254° |
| 2026-05-07 22:49 | 60.05097 | -74.01295 | 35708 ft | 474 kts | 254° |
| 2026-05-07 22:49 | 60.03537 | -74.14115 | 35700 ft | 474 kts | 254° |
| 2026-05-07 22:50 | 60.01964 | -74.26922 | 35697 ft | 474 kts | 254° |
| 2026-05-07 22:50 | 60.00379 | -74.39723 | 35697 ft | 474 kts | 254° |
| 2026-05-07 22:51 | 59.98780 | -74.52518 | 35687 ft | 475 kts | 253° |
| 2026-05-07 22:51 | 59.97170 | -74.65297 | 35700 ft | 475 kts | 253° |
| 2026-05-07 22:52 | 59.95547 | -74.78068 | 35687 ft | 475 kts | 253° |
| 2026-05-07 22:52 | 59.93909 | -74.90844 | 35683 ft | 475 kts | 253° |
| 2026-05-07 22:53 | 59.92259 | -75.03601 | 35684 ft | 475 kts | 253° |
| 2026-05-07 22:53 | 59.90597 | -75.16345 | 35685 ft | 475 kts | 253° |
| 2026-05-07 22:54 | 59.88922 | -75.29086 | 35677 ft | 475 kts | 253° |
| 2026-05-07 22:54 | 59.87237 | -75.41798 | 35671 ft | 475 kts | 252° |
| 2026-05-07 22:55 | 59.85538 | -75.54504 | 35668 ft | 475 kts | 252° |
| 2026-05-07 22:55 | 59.83839 | -75.67098 | 35659 ft | 475 kts | 253° |
| 2026-05-07 22:56 | 59.82117 | -75.79775 | 35661 ft | 475 kts | 253° |
| 2026-05-07 22:56 | 59.80384 | -75.92429 | 35660 ft | 475 kts | 252° |
| 2026-05-07 22:57 | 59.78639 | -76.05069 | 35650 ft | 475 kts | 253° |
| 2026-05-07 22:57 | 59.76881 | -76.17696 | 35654 ft | 475 kts | 252° |
| 2026-05-07 22:58 | 59.75111 | -76.30312 | 35643 ft | 475 kts | 252° |
| 2026-05-07 22:58 | 59.73329 | -76.42916 | 35642 ft | 475 kts | 252° |
| 2026-05-07 22:59 | 59.71535 | -76.55506 | 35648 ft | 475 kts | 252° |
| 2026-05-07 22:59 | 59.69728 | -76.68089 | 35648 ft | 475 kts | 251° |
| 2026-05-07 23:00 | 59.67911 | -76.80636 | 35674 ft | 474 kts | 252° |
| 2026-05-07 23:00 | 59.66080 | -76.93186 | 35633 ft | 475 kts | 252° |
| 2026-05-07 23:01 | 59.64236 | -77.05727 | 35650 ft | 475 kts | 252° |
| 2026-05-07 23:01 | 59.62392 | -77.18187 | 35630 ft | 475 kts | 251° |
| 2026-05-07 23:02 | 59.60525 | -77.30715 | 35632 ft | 476 kts | 252° |
| 2026-05-07 23:02 | 59.58644 | -77.43227 | 35625 ft | 475 kts | 251° |
| 2026-05-07 23:03 | 59.56749 | -77.55723 | 35642 ft | 475 kts | 250° |
| 2026-05-07 23:03 | 59.54847 | -77.68207 | 35627 ft | 475 kts | 251° |
| 2026-05-07 23:04 | 59.52932 | -77.80662 | 35627 ft | 475 kts | 250° |
| 2026-05-07 23:04 | 59.51006 | -77.93091 | 35622 ft | 474 kts | 251° |
| 2026-05-07 23:05 | 59.49074 | -78.05498 | 35624 ft | 474 kts | 251° |
| 2026-05-07 23:05 | 59.47128 | -78.17885 | 35623 ft | 474 kts | 251° |
| 2026-05-07 23:06 | 59.45171 | -78.30248 | 35625 ft | 474 kts | 251° |
| 2026-05-07 23:06 | 59.43200 | -78.42613 | 35625 ft | 474 kts | 251° |
| 2026-05-07 23:07 | 59.41217 | -78.54977 | 35622 ft | 475 kts | 250° |
| 2026-05-07 23:07 | 59.39222 | -78.67330 | 35620 ft | 475 kts | 250° |
| 2026-05-07 23:08 | 59.37212 | -78.79691 | 35608 ft | 476 kts | 250° |
| 2026-05-07 23:08 | 59.35189 | -78.92040 | 35604 ft | 476 kts | 249° |
| 2026-05-07 23:09 | 59.33152 | -79.04371 | 35608 ft | 476 kts | 251° |
| 2026-05-07 23:09 | 59.31106 | -79.16694 | 35600 ft | 476 kts | 249° |
| 2026-05-07 23:10 | 59.29048 | -79.29000 | 35595 ft | 476 kts | 250° |
| 2026-05-07 23:10 | 59.26975 | -79.41297 | 35597 ft | 476 kts | 250° |
| 2026-05-07 23:11 | 59.24896 | -79.53579 | 35593 ft | 476 kts | 250° |
| 2026-05-07 23:11 | 59.22801 | -79.65847 | 35592 ft | 476 kts | 249° |
| 2026-05-07 23:12 | 59.20692 | -79.78118 | 35590 ft | 477 kts | 250° |
| 2026-05-07 23:12 | 59.18575 | -79.90376 | 35579 ft | 477 kts | 250° |
| 2026-05-07 23:13 | 59.16342 | -80.02460 | 35583 ft | 476 kts | 244° |
| 2026-05-07 23:13 | 59.13423 | -80.14002 | 35578 ft | 475 kts | 242° |
| 2026-05-07 23:14 | 59.10429 | -80.25483 | 35570 ft | 476 kts | 242° |
| 2026-05-07 23:14 | 59.07446 | -80.36972 | 35574 ft | 476 kts | 242° |
| 2026-05-07 23:15 | 59.04475 | -80.48457 | 35579 ft | 476 kts | 243° |
| 2026-05-07 23:15 | 59.01497 | -80.59944 | 35592 ft | 476 kts | 242° |
| 2026-05-07 23:16 | 58.98505 | -80.71421 | 35581 ft | 477 kts | 242° |
| 2026-05-07 23:16 | 58.95499 | -80.82890 | 35569 ft | 477 kts | 242° |
| 2026-05-07 23:17 | 58.92483 | -80.94335 | 35577 ft | 477 kts | 242° |
| 2026-05-07 23:17 | 58.89460 | -81.05748 | 35577 ft | 476 kts | 242° |
| 2026-05-07 23:18 | 58.86428 | -81.17138 | 35562 ft | 476 kts | 242° |
| 2026-05-07 23:18 | 58.83388 | -81.28496 | 35572 ft | 476 kts | 242° |
| 2026-05-07 23:19 | 58.80360 | -81.39755 | 35577 ft | 476 kts | 242° |
| 2026-05-07 23:19 | 58.77298 | -81.51086 | 35570 ft | 476 kts | 242° |
| 2026-05-07 23:20 | 58.74225 | -81.62400 | 35580 ft | 477 kts | 241° |
| 2026-05-07 23:20 | 58.71142 | -81.73692 | 35575 ft | 477 kts | 242° |
| 2026-05-07 23:21 | 58.68049 | -81.84967 | 35570 ft | 477 kts | 242° |
| 2026-05-07 23:21 | 58.64946 | -81.96221 | 35562 ft | 477 kts | 242° |
| 2026-05-07 23:22 | 58.61831 | -82.07467 | 35564 ft | 477 kts | 242° |
| 2026-05-07 23:22 | 58.58709 | -82.18679 | 35559 ft | 477 kts | 242° |
| 2026-05-07 23:23 | 58.55575 | -82.29880 | 35561 ft | 477 kts | 242° |
| 2026-05-07 23:23 | 58.52433 | -82.41056 | 35566 ft | 477 kts | 241° |
| 2026-05-07 23:24 | 58.49265 | -82.52267 | 35573 ft | 484 kts | 241° |
| 2026-05-07 23:24 | 58.46051 | -82.63588 | 35558 ft | 484 kts | 241° |
| 2026-05-07 23:25 | 58.42827 | -82.74888 | 35565 ft | 485 kts | 241° |
| 2026-05-07 23:25 | 58.39599 | -82.86145 | 35556 ft | 485 kts | 241° |
| 2026-05-07 23:26 | 58.36357 | -82.97396 | 35563 ft | 484 kts | 241° |
| 2026-05-07 23:26 | 58.33101 | -83.08640 | 35557 ft | 485 kts | 241° |
| 2026-05-07 23:27 | 58.28198 | -83.25470 | 35564 ft | 484 kts | 241° |
| 2026-05-07 23:27 | 58.24927 | -83.36632 | 35565 ft | 483 kts | 240° |
| 2026-05-07 23:28 | 58.21646 | -83.47774 | 35563 ft | 483 kts | 240° |
| 2026-05-07 23:28 | 58.18374 | -83.58831 | 35572 ft | 485 kts | 240° |
| 2026-05-07 23:29 | 58.15067 | -83.69952 | 35568 ft | 485 kts | 240° |
| 2026-05-07 23:29 | 58.11750 | -83.81057 | 35569 ft | 485 kts | 240° |
| 2026-05-07 23:30 | 58.08422 | -83.92143 | 35569 ft | 484 kts | 240° |
| 2026-05-07 23:30 | 58.05089 | -84.03195 | 35572 ft | 483 kts | 240° |
| 2026-05-07 23:31 | 58.01750 | -84.14212 | 35569 ft | 484 kts | 240° |
| 2026-05-07 23:31 | 57.98394 | -84.25234 | 35578 ft | 485 kts | 240° |
| 2026-05-07 23:32 | 57.95035 | -84.36215 | 35572 ft | 483 kts | 240° |
| 2026-05-07 23:32 | 57.91665 | -84.47181 | 35570 ft | 484 kts | 240° |
| 2026-05-07 23:33 | 57.88855 | -84.56284 | 35577 ft | 485 kts | 240° |
| 2026-05-07 23:33 | 57.85462 | -84.67232 | 35580 ft | 484 kts | 240° |
| 2026-05-07 23:34 | 57.82064 | -84.78143 | 35579 ft | 484 kts | 240° |
| 2026-05-07 23:34 | 57.78661 | -84.89019 | 35588 ft | 484 kts | 240° |
| 2026-05-07 23:35 | 57.75241 | -84.99898 | 35588 ft | 485 kts | 240° |
| 2026-05-07 23:35 | 57.71795 | -85.10813 | 35599 ft | 490 kts | 240° |
| 2026-05-07 23:36 | 57.68304 | -85.21819 | 35589 ft | 495 kts | 240° |
| 2026-05-07 23:36 | 57.64773 | -85.32897 | 35591 ft | 497 kts | 240° |
| 2026-05-07 23:37 | 57.61223 | -85.43981 | 35596 ft | 497 kts | 240° |
| 2026-05-07 23:37 | 57.57669 | -85.55028 | 35592 ft | 496 kts | 240° |
| 2026-05-07 23:38 | 57.54123 | -85.65997 | 35593 ft | 493 kts | 239° |
| 2026-05-07 23:38 | 57.50586 | -85.76891 | 35596 ft | 490 kts | 239° |
| 2026-05-07 23:39 | 57.47060 | -85.87698 | 35593 ft | 488 kts | 240° |
| 2026-05-07 23:39 | 57.43533 | -85.98461 | 35600 ft | 488 kts | 240° |
| 2026-05-07 23:40 | 57.39999 | -86.09200 | 35616 ft | 488 kts | 239° |
| 2026-05-07 23:40 | 57.36465 | -86.19887 | 35618 ft | 490 kts | 240° |
| 2026-05-07 23:41 | 57.32889 | -86.30654 | 35614 ft | 492 kts | 240° |
| 2026-05-07 23:41 | 57.29289 | -86.41443 | 35623 ft | 493 kts | 240° |
| 2026-05-07 23:42 | 57.25680 | -86.52213 | 35616 ft | 494 kts | 239° |
| 2026-05-07 23:42 | 57.22054 | -86.62976 | 35632 ft | 493 kts | 239° |
| 2026-05-07 23:43 | 57.18423 | -86.73712 | 35630 ft | 493 kts | 239° |
| 2026-05-07 23:43 | 57.14785 | -86.84422 | 35633 ft | 493 kts | 239° |
| 2026-05-07 23:44 | 57.11140 | -86.95108 | 35628 ft | 493 kts | 239° |
| 2026-05-07 23:44 | 57.07486 | -87.05761 | 35625 ft | 492 kts | 239° |
| 2026-05-07 23:45 | 57.03831 | -87.16381 | 35642 ft | 492 kts | 240° |
| 2026-05-07 23:45 | 57.00163 | -87.26989 | 35653 ft | 492 kts | 239° |
| 2026-05-07 23:46 | 56.96484 | -87.37578 | 35653 ft | 493 kts | 239° |
| 2026-05-07 23:46 | 56.92794 | -87.48157 | 35637 ft | 493 kts | 239° |
| 2026-05-07 23:47 | 56.89091 | -87.58725 | 35659 ft | 493 kts | 240° |
| 2026-05-07 23:47 | 56.85380 | -87.69269 | 35648 ft | 493 kts | 240° |
| 2026-05-07 23:48 | 56.81662 | -87.79787 | 35656 ft | 493 kts | 239° |
| 2026-05-07 23:48 | 56.77940 | -87.90269 | 35661 ft | 492 kts | 239° |
| 2026-05-07 23:49 | 56.74208 | -88.00736 | 35658 ft | 492 kts | 239° |
| 2026-05-07 23:49 | 56.70496 | -88.11100 | 35663 ft | 492 kts | 238° |
| 2026-05-07 23:50 | 56.66750 | -88.21515 | 35662 ft | 492 kts | 238° |
| 2026-05-07 23:50 | 56.63001 | -88.31893 | 35654 ft | 491 kts | 238° |
| 2026-05-07 23:51 | 56.59242 | -88.42255 | 35672 ft | 491 kts | 238° |
| 2026-05-07 23:51 | 56.55476 | -88.52593 | 35672 ft | 491 kts | 238° |
| 2026-05-07 23:52 | 56.51701 | -88.62912 | 35675 ft | 491 kts | 238° |
| 2026-05-07 23:52 | 56.47915 | -88.73214 | 35679 ft | 491 kts | 238° |
| 2026-05-07 23:53 | 56.44123 | -88.83491 | 35679 ft | 492 kts | 238° |
| 2026-05-07 23:53 | 56.40319 | -88.93758 | 35681 ft | 492 kts | 238° |
| 2026-05-07 23:54 | 56.36505 | -89.04008 | 35689 ft | 492 kts | 238° |
| 2026-05-07 23:54 | 56.32683 | -89.14235 | 35691 ft | 492 kts | 238° |
| 2026-05-07 23:55 | 56.28872 | -89.24389 | 35698 ft | 492 kts | 238° |
| 2026-05-07 23:55 | 56.25030 | -89.34584 | 35689 ft | 492 kts | 238° |
| 2026-05-07 23:56 | 56.21178 | -89.44764 | 35690 ft | 492 kts | 238° |
| 2026-05-07 23:56 | 56.17319 | -89.54921 | 35697 ft | 492 kts | 238° |
| 2026-05-07 23:57 | 56.13453 | -89.65053 | 35695 ft | 492 kts | 238° |
| 2026-05-07 23:57 | 56.09583 | -89.75155 | 35696 ft | 492 kts | 238° |
| 2026-05-07 23:58 | 56.05704 | -89.85241 | 35697 ft | 492 kts | 238° |
| 2026-05-07 23:58 | 56.01822 | -89.95297 | 35703 ft | 492 kts | 238° |
| 2026-05-07 23:59 | 55.97702 | -90.05063 | 35708 ft | 493 kts | 232° |
| 2026-05-07 23:59 | 55.93243 | -90.14371 | 35702 ft | 493 kts | 232° |
| 2026-05-08 00:00 | 55.88771 | -90.23645 | 35713 ft | 494 kts | 232° |
| 2026-05-08 00:00 | 55.84333 | -90.32883 | 35713 ft | 494 kts | 232° |
| 2026-05-08 00:01 | 55.79835 | -90.42250 | 35709 ft | 495 kts | 232° |
| 2026-05-08 00:01 | 55.75392 | -90.51473 | 35713 ft | 495 kts | 232° |
| 2026-05-08 00:02 | 55.70885 | -90.60791 | 35702 ft | 494 kts | 232° |
| 2026-05-08 00:02 | 55.66428 | -90.69968 | 35723 ft | 494 kts | 232° |
| 2026-05-08 00:03 | 55.61935 | -90.79184 | 35727 ft | 494 kts | 232° |
| 2026-05-08 00:03 | 55.57435 | -90.88376 | 35726 ft | 495 kts | 232° |
| 2026-05-08 00:04 | 55.52925 | -90.97556 | 35731 ft | 495 kts | 232° |
| 2026-05-08 00:04 | 55.48411 | -91.06708 | 35731 ft | 494 kts | 232° |
| 2026-05-08 00:05 | 55.43891 | -91.15839 | 35736 ft | 494 kts | 232° |
| 2026-05-08 00:05 | 55.39364 | -91.24948 | 35743 ft | 494 kts | 232° |
| 2026-05-08 00:06 | 55.34833 | -91.34033 | 35746 ft | 494 kts | 232° |
| 2026-05-08 00:06 | 55.30292 | -91.43101 | 35745 ft | 495 kts | 232° |
| 2026-05-08 00:07 | 55.25739 | -91.52159 | 35748 ft | 495 kts | 232° |
| 2026-05-08 00:07 | 55.21179 | -91.61198 | 35754 ft | 495 kts | 232° |
| 2026-05-08 00:08 | 55.16615 | -91.70211 | 35741 ft | 494 kts | 232° |
| 2026-05-08 00:08 | 55.12081 | -91.79129 | 35754 ft | 494 kts | 232° |
| 2026-05-08 00:09 | 55.07507 | -91.88093 | 35759 ft | 494 kts | 232° |
| 2026-05-08 00:09 | 55.02929 | -91.97034 | 35757 ft | 494 kts | 231° |
| 2026-05-08 00:10 | 54.98340 | -92.05962 | 35746 ft | 494 kts | 232° |
| 2026-05-08 00:10 | 54.93747 | -92.14866 | 35755 ft | 494 kts | 231° |
| 2026-05-08 00:11 | 54.89152 | -92.23740 | 35746 ft | 494 kts | 231° |
| 2026-05-08 00:11 | 54.84556 | -92.32582 | 35749 ft | 493 kts | 231° |
| 2026-05-08 00:12 | 54.79950 | -92.41413 | 35753 ft | 493 kts | 231° |
| 2026-05-08 00:12 | 54.75337 | -92.50224 | 35755 ft | 494 kts | 231° |
| 2026-05-08 00:13 | 54.70718 | -92.59014 | 35751 ft | 494 kts | 231° |
| 2026-05-08 00:13 | 54.66092 | -92.67784 | 35753 ft | 493 kts | 231° |
| 2026-05-08 00:14 | 54.61466 | -92.76522 | 35751 ft | 493 kts | 231° |
| 2026-05-08 00:14 | 54.56866 | -92.85182 | 35756 ft | 493 kts | 231° |
| 2026-05-08 00:15 | 54.52231 | -92.93875 | 35760 ft | 493 kts | 231° |
| 2026-05-08 00:15 | 54.47587 | -93.02556 | 35768 ft | 493 kts | 231° |
| 2026-05-08 00:16 | 54.42939 | -93.11210 | 35764 ft | 493 kts | 231° |
| 2026-05-08 00:16 | 54.38283 | -93.19847 | 35767 ft | 493 kts | 231° |
| 2026-05-08 00:17 | 54.33629 | -93.28452 | 35778 ft | 492 kts | 231° |
| 2026-05-08 00:17 | 54.28967 | -93.37040 | 35777 ft | 492 kts | 231° |
| 2026-05-08 00:18 | 54.24301 | -93.45606 | 35780 ft | 492 kts | 231° |
| 2026-05-08 00:18 | 54.19629 | -93.54151 | 35765 ft | 492 kts | 231° |
| 2026-05-08 00:19 | 54.14949 | -93.62681 | 35780 ft | 492 kts | 231° |
| 2026-05-08 00:19 | 54.10267 | -93.71183 | 35751 ft | 492 kts | 231° |
| 2026-05-08 00:20 | 54.05584 | -93.79656 | 35778 ft | 491 kts | 231° |
| 2026-05-08 00:20 | 54.00899 | -93.88106 | 35790 ft | 491 kts | 231° |
| 2026-05-08 00:21 | 53.96209 | -93.96535 | 35785 ft | 491 kts | 231° |
| 2026-05-08 00:21 | 53.91512 | -94.04945 | 35788 ft | 491 kts | 231° |
| 2026-05-08 00:22 | 53.86815 | -94.13327 | 35785 ft | 490 kts | 231° |
| 2026-05-08 00:22 | 53.82112 | -94.21689 | 35764 ft | 490 kts | 231° |
| 2026-05-08 00:23 | 53.77412 | -94.30019 | 35768 ft | 489 kts | 231° |
| 2026-05-08 00:23 | 53.73502 | -94.36927 | 35772 ft | 489 kts | 231° |
| 2026-05-08 00:24 | 53.68795 | -94.45216 | 35772 ft | 489 kts | 231° |
| 2026-05-08 00:24 | 53.64080 | -94.53491 | 35769 ft | 489 kts | 231° |
| 2026-05-08 00:25 | 53.59364 | -94.61738 | 35789 ft | 489 kts | 231° |
| 2026-05-08 00:25 | 53.54639 | -94.69973 | 35805 ft | 489 kts | 230° |
| 2026-05-08 00:26 | 53.49910 | -94.78185 | 35807 ft | 489 kts | 230° |
| 2026-05-08 00:26 | 53.45175 | -94.86382 | 35805 ft | 489 kts | 230° |
| 2026-05-08 00:27 | 53.40433 | -94.94563 | 35801 ft | 489 kts | 230° |
| 2026-05-08 00:27 | 53.35720 | -95.02664 | 35801 ft | 489 kts | 230° |
| 2026-05-08 00:28 | 53.30967 | -95.10809 | 35805 ft | 489 kts | 230° |
| 2026-05-08 00:28 | 53.26218 | -95.18918 | 35800 ft | 488 kts | 230° |
| 2026-05-08 00:29 | 53.21466 | -95.27005 | 35809 ft | 487 kts | 230° |
| 2026-05-08 00:29 | 53.16715 | -95.35063 | 35811 ft | 487 kts | 230° |
| 2026-05-08 00:30 | 53.11961 | -95.43100 | 35801 ft | 487 kts | 230° |
| 2026-05-08 00:30 | 53.07203 | -95.51116 | 35812 ft | 487 kts | 230° |
| 2026-05-08 00:31 | 53.02440 | -95.59114 | 35787 ft | 486 kts | 230° |
| 2026-05-08 00:31 | 52.97682 | -95.67077 | 35812 ft | 486 kts | 230° |
| 2026-05-08 00:32 | 52.92917 | -95.75026 | 35820 ft | 486 kts | 230° |
| 2026-05-08 00:32 | 52.88150 | -95.82952 | 35825 ft | 486 kts | 230° |
| 2026-05-08 00:33 | 52.83376 | -95.90863 | 35814 ft | 485 kts | 230° |
| 2026-05-08 00:33 | 52.78598 | -95.98754 | 35825 ft | 485 kts | 230° |
| 2026-05-08 00:34 | 52.73819 | -96.06622 | 35811 ft | 485 kts | 229° |
| 2026-05-08 00:34 | 52.69036 | -96.14470 | 35831 ft | 485 kts | 229° |
| 2026-05-08 00:35 | 52.64250 | -96.22298 | 35835 ft | 485 kts | 229° |
| 2026-05-08 00:35 | 52.59462 | -96.30103 | 35830 ft | 485 kts | 229° |
| 2026-05-08 00:36 | 52.54664 | -96.37900 | 35840 ft | 485 kts | 229° |
| 2026-05-08 00:36 | 52.49868 | -96.45667 | 35836 ft | 485 kts | 229° |
| 2026-05-08 00:37 | 52.45099 | -96.53366 | 35838 ft | 484 kts | 229° |
| 2026-05-08 00:38 | 52.37903 | -96.64944 | 35848 ft | 483 kts | 229° |
| 2026-05-08 00:38 | 52.33070 | -96.72597 | 35831 ft | 484 kts | 227° |
| 2026-05-08 00:39 | 52.28006 | -96.79863 | 35850 ft | 485 kts | 226° |
| 2026-05-08 00:39 | 52.22899 | -96.87048 | 35853 ft | 485 kts | 226° |
| 2026-05-08 00:40 | 52.17799 | -96.94229 | 35856 ft | 484 kts | 226° |
| 2026-05-08 00:40 | 52.12715 | -97.01404 | 35854 ft | 484 kts | 226° |
| 2026-05-08 00:41 | 52.07630 | -97.08575 | 35861 ft | 483 kts | 226° |
| 2026-05-08 00:41 | 52.02546 | -97.15718 | 35852 ft | 483 kts | 226° |
| 2026-05-08 00:42 | 51.97460 | -97.22840 | 35856 ft | 483 kts | 226° |
| 2026-05-08 00:42 | 51.92372 | -97.29941 | 35858 ft | 483 kts | 226° |
| 2026-05-08 00:43 | 51.87283 | -97.37024 | 35843 ft | 482 kts | 226° |
| 2026-05-08 00:43 | 51.82197 | -97.44077 | 35846 ft | 481 kts | 226° |
| 2026-05-08 00:44 | 51.77115 | -97.51103 | 35846 ft | 481 kts | 226° |
| 2026-05-08 00:44 | 51.72031 | -97.58113 | 35843 ft | 480 kts | 225° |
| 2026-05-08 00:45 | 51.66946 | -97.65101 | 35844 ft | 480 kts | 225° |
| 2026-05-08 00:45 | 51.61892 | -97.72027 | 35841 ft | 480 kts | 225° |
| 2026-05-08 00:46 | 51.56769 | -97.79027 | 35846 ft | 479 kts | 225° |
| 2026-05-08 00:46 | 51.51721 | -97.85899 | 35839 ft | 479 kts | 225° |
| 2026-05-08 00:47 | 51.46640 | -97.92798 | 35845 ft | 478 kts | 225° |
| 2026-05-08 00:47 | 51.41560 | -97.99675 | 35845 ft | 478 kts | 225° |
| 2026-05-08 00:48 | 51.36472 | -98.06543 | 35848 ft | 478 kts | 225° |
| 2026-05-08 00:48 | 51.31385 | -98.13387 | 35847 ft | 478 kts | 225° |
| 2026-05-08 00:49 | 51.26306 | -98.20203 | 35837 ft | 476 kts | 225° |
| 2026-05-08 00:49 | 51.21227 | -98.26994 | 35863 ft | 476 kts | 225° |
| 2026-05-08 00:50 | 51.16152 | -98.33761 | 35861 ft | 475 kts | 225° |
| 2026-05-08 00:50 | 51.11073 | -98.40515 | 35860 ft | 475 kts | 225° |
| 2026-05-08 00:51 | 51.05999 | -98.47242 | 35845 ft | 475 kts | 225° |
| 2026-05-08 00:51 | 51.00918 | -98.53956 | 35833 ft | 475 kts | 225° |
| 2026-05-08 00:52 | 50.95846 | -98.60641 | 35855 ft | 474 kts | 224° |
| 2026-05-08 00:52 | 50.90772 | -98.67309 | 35859 ft | 474 kts | 224° |
| 2026-05-08 00:53 | 50.85692 | -98.73964 | 35863 ft | 474 kts | 224° |
| 2026-05-08 00:53 | 50.80613 | -98.80600 | 35863 ft | 474 kts | 224° |
| 2026-05-08 00:54 | 50.75522 | -98.87231 | 35856 ft | 474 kts | 224° |
| 2026-05-08 00:54 | 50.70434 | -98.93840 | 35862 ft | 474 kts | 224° |
| 2026-05-08 00:55 | 50.65335 | -99.00442 | 35857 ft | 474 kts | 224° |
| 2026-05-08 00:55 | 50.60233 | -99.07031 | 35858 ft | 474 kts | 224° |
| 2026-05-08 00:56 | 50.55163 | -99.13558 | 35859 ft | 474 kts | 224° |
| 2026-05-08 00:56 | 50.50050 | -99.20122 | 35854 ft | 474 kts | 224° |
| 2026-05-08 00:57 | 50.44937 | -99.26667 | 35860 ft | 474 kts | 224° |
| 2026-05-08 00:57 | 50.39823 | -99.33195 | 35851 ft | 473 kts | 224° |
| 2026-05-08 00:58 | 50.34714 | -99.39698 | 35851 ft | 473 kts | 224° |
| 2026-05-08 00:58 | 50.29608 | -99.46179 | 35850 ft | 473 kts | 224° |
| 2026-05-08 00:59 | 50.24494 | -99.52651 | 35837 ft | 473 kts | 224° |
| 2026-05-08 00:59 | 50.19383 | -99.59100 | 35851 ft | 472 kts | 224° |
| 2026-05-08 01:00 | 50.14294 | -99.65506 | 35831 ft | 472 kts | 224° |
| 2026-05-08 01:00 | 50.09174 | -99.71930 | 35858 ft | 471 kts | 224° |
| 2026-05-08 01:01 | 50.04065 | -99.78325 | 35864 ft | 471 kts | 224° |
| 2026-05-08 01:01 | 49.98950 | -99.84710 | 35850 ft | 471 kts | 224° |
| 2026-05-08 01:02 | 49.93841 | -99.91070 | 35863 ft | 471 kts | 224° |
| 2026-05-08 01:02 | 49.88579 | -99.97149 | 35834 ft | 474 kts | 218° |
| 2026-05-08 01:03 | 49.83002 | -100.02638 | 35822 ft | 475 kts | 217° |
| 2026-05-08 01:03 | 49.77457 | -100.08061 | 35842 ft | 474 kts | 217° |
| 2026-05-08 01:04 | 49.71895 | -100.13535 | 35852 ft | 474 kts | 218° |
| 2026-05-08 01:04 | 49.66337 | -100.19014 | 35861 ft | 474 kts | 218° |
| 2026-05-08 01:05 | 49.60784 | -100.24480 | 35877 ft | 474 kts | 218° |
| 2026-05-08 01:05 | 49.55223 | -100.29934 | 35880 ft | 474 kts | 218° |
| 2026-05-08 01:06 | 49.49657 | -100.35377 | 35841 ft | 473 kts | 218° |
| 2026-05-08 01:06 | 49.44100 | -100.40796 | 35875 ft | 473 kts | 218° |
| 2026-05-08 01:07 | 49.38548 | -100.46197 | 35885 ft | 472 kts | 218° |
| 2026-05-08 01:07 | 49.32992 | -100.51587 | 35883 ft | 473 kts | 217° |
| 2026-05-08 01:08 | 49.27429 | -100.56969 | 35882 ft | 473 kts | 217° |
| 2026-05-08 01:08 | 49.21867 | -100.62335 | 35878 ft | 473 kts | 217° |
| 2026-05-08 01:09 | 49.16338 | -100.67655 | 35860 ft | 473 kts | 217° |
| 2026-05-08 01:09 | 49.10740 | -100.73028 | 35878 ft | 472 kts | 217° |
| 2026-05-08 01:10 | 49.05210 | -100.78323 | 35882 ft | 472 kts | 217° |
| 2026-05-08 01:10 | 48.99639 | -100.83642 | 35872 ft | 473 kts | 217° |
| 2026-05-08 01:11 | 48.94064 | -100.88942 | 35880 ft | 472 kts | 217° |
| 2026-05-08 01:11 | 48.88487 | -100.94230 | 35886 ft | 472 kts | 217° |
| 2026-05-08 01:12 | 48.82907 | -100.99510 | 35866 ft | 473 kts | 217° |
| 2026-05-08 01:12 | 48.77321 | -101.04783 | 35879 ft | 473 kts | 217° |
| 2026-05-08 01:13 | 48.71734 | -101.10043 | 35882 ft | 473 kts | 217° |
| 2026-05-08 01:13 | 48.66145 | -101.15291 | 35883 ft | 473 kts | 217° |
| 2026-05-08 01:14 | 48.60556 | -101.20525 | 35883 ft | 473 kts | 217° |
| 2026-05-08 01:14 | 48.54957 | -101.25754 | 35877 ft | 473 kts | 217° |
| 2026-05-08 01:15 | 48.49355 | -101.30972 | 35783 ft | 473 kts | 217° |
| 2026-05-08 01:15 | 48.44708 | -101.35290 | 35807 ft | 472 kts | 217° |
| 2026-05-08 01:16 | 48.39114 | -101.40476 | 35818 ft | 472 kts | 217° |
| 2026-05-08 01:16 | 48.33511 | -101.45658 | 35818 ft | 473 kts | 217° |
| 2026-05-08 01:17 | 48.27904 | -101.50830 | 35853 ft | 473 kts | 217° |
| 2026-05-08 01:17 | 48.22291 | -101.55992 | 35852 ft | 474 kts | 217° |
| 2026-05-08 01:18 | 48.16667 | -101.61151 | 35835 ft | 474 kts | 217° |
| 2026-05-08 01:18 | 48.11044 | -101.66297 | 35851 ft | 474 kts | 217° |
| 2026-05-08 01:19 | 48.05410 | -101.71439 | 35860 ft | 475 kts | 217° |
| 2026-05-08 01:19 | 47.99770 | -101.76573 | 35857 ft | 475 kts | 217° |
| 2026-05-08 01:20 | 47.94119 | -101.81704 | 35869 ft | 475 kts | 217° |
| 2026-05-08 01:20 | 47.88501 | -101.86791 | 35863 ft | 476 kts | 217° |
| 2026-05-08 01:21 | 47.82842 | -101.91903 | 35860 ft | 476 kts | 217° |
| 2026-05-08 01:21 | 47.77180 | -101.97005 | 35866 ft | 476 kts | 217° |
| 2026-05-08 01:22 | 47.71510 | -102.02100 | 35873 ft | 477 kts | 217° |
| 2026-05-08 01:22 | 47.65832 | -102.07189 | 35873 ft | 477 kts | 217° |
| 2026-05-08 01:23 | 47.60147 | -102.12272 | 35872 ft | 477 kts | 217° |
| 2026-05-08 01:23 | 47.54458 | -102.17345 | 35853 ft | 477 kts | 217° |
| 2026-05-08 01:24 | 47.48771 | -102.22402 | 35864 ft | 477 kts | 217° |
| 2026-05-08 01:24 | 47.43086 | -102.27446 | 35863 ft | 476 kts | 217° |
| 2026-05-08 01:25 | 47.37405 | -102.32474 | 35859 ft | 476 kts | 217° |
| 2026-05-08 01:25 | 47.31717 | -102.37494 | 35854 ft | 476 kts | 216° |
| 2026-05-08 01:26 | 47.26037 | -102.42495 | 35859 ft | 475 kts | 216° |
| 2026-05-08 01:26 | 47.20356 | -102.47485 | 35837 ft | 475 kts | 217° |
| 2026-05-08 01:27 | 47.14672 | -102.52465 | 35856 ft | 476 kts | 217° |
| 2026-05-08 01:27 | 47.08982 | -102.57438 | 35845 ft | 476 kts | 217° |
| 2026-05-08 01:28 | 47.03290 | -102.62400 | 35849 ft | 476 kts | 217° |
| 2026-05-08 01:28 | 46.97585 | -102.67362 | 35848 ft | 477 kts | 217° |
| 2026-05-08 01:29 | 46.91878 | -102.72313 | 35846 ft | 477 kts | 217° |
| 2026-05-08 01:29 | 46.86364 | -102.77623 | 35822 ft | 470 kts | 225° |
| 2026-05-08 01:30 | 46.81692 | -102.84140 | 35838 ft | 461 kts | 234° |
| 2026-05-08 01:30 | 46.77403 | -102.91107 | 35841 ft | 462 kts | 234° |
| 2026-05-08 01:31 | 46.73095 | -102.98069 | 35846 ft | 462 kts | 234° |
| 2026-05-08 01:31 | 46.68793 | -103.04962 | 35853 ft | 463 kts | 234° |
| 2026-05-08 01:32 | 46.64450 | -103.11881 | 35860 ft | 463 kts | 234° |
| 2026-05-08 01:32 | 46.60104 | -103.18783 | 35866 ft | 462 kts | 234° |
| 2026-05-08 01:33 | 46.55757 | -103.25669 | 35869 ft | 462 kts | 233° |
| 2026-05-08 01:33 | 46.51406 | -103.32548 | 35868 ft | 462 kts | 233° |
| 2026-05-08 01:34 | 46.47050 | -103.39417 | 35836 ft | 462 kts | 233° |
| 2026-05-08 01:34 | 46.42701 | -103.46255 | 35862 ft | 461 kts | 233° |
| 2026-05-08 01:35 | 46.38350 | -103.53081 | 35877 ft | 461 kts | 233° |
| 2026-05-08 01:35 | 46.34000 | -103.59887 | 35874 ft | 460 kts | 233° |
| 2026-05-08 01:36 | 46.29649 | -103.66679 | 35876 ft | 460 kts | 233° |
| 2026-05-08 01:36 | 46.25293 | -103.73462 | 35870 ft | 460 kts | 233° |
| 2026-05-08 01:37 | 46.20937 | -103.80226 | 35876 ft | 460 kts | 233° |
| 2026-05-08 01:37 | 46.16580 | -103.86976 | 35886 ft | 460 kts | 233° |
| 2026-05-08 01:38 | 46.12220 | -103.93715 | 35885 ft | 460 kts | 233° |
| 2026-05-08 01:38 | 46.07849 | -104.00452 | 35880 ft | 460 kts | 233° |
| 2026-05-08 01:39 | 46.03502 | -104.07135 | 35892 ft | 459 kts | 233° |
| 2026-05-08 01:39 | 45.99123 | -104.13852 | 35896 ft | 459 kts | 233° |
| 2026-05-08 01:40 | 45.94744 | -104.20552 | 35891 ft | 460 kts | 233° |
| 2026-05-08 01:40 | 45.90352 | -104.27255 | 35898 ft | 460 kts | 233° |
| 2026-05-08 01:41 | 45.85965 | -104.33934 | 35879 ft | 460 kts | 233° |
| 2026-05-08 01:41 | 45.81604 | -104.40557 | 35892 ft | 459 kts | 233° |
| 2026-05-08 01:42 | 45.77214 | -104.47208 | 35898 ft | 459 kts | 233° |
| 2026-05-08 01:42 | 45.72824 | -104.53843 | 35903 ft | 459 kts | 233° |
| 2026-05-08 01:43 | 45.68431 | -104.60466 | 35904 ft | 459 kts | 233° |
| 2026-05-08 01:43 | 45.64035 | -104.67077 | 35894 ft | 458 kts | 233° |
| 2026-05-08 01:44 | 45.59639 | -104.73673 | 35895 ft | 458 kts | 232° |
| 2026-05-08 01:44 | 45.55269 | -104.80213 | 35901 ft | 458 kts | 232° |
| 2026-05-08 01:45 | 45.50866 | -104.86788 | 35902 ft | 458 kts | 232° |
| 2026-05-08 01:45 | 45.46454 | -104.93358 | 35880 ft | 458 kts | 232° |
| 2026-05-08 01:46 | 45.42051 | -104.99900 | 35896 ft | 457 kts | 232° |
| 2026-05-08 01:46 | 45.37634 | -105.06447 | 35906 ft | 457 kts | 232° |
| 2026-05-08 01:47 | 45.33250 | -105.12931 | 35895 ft | 457 kts | 232° |
| 2026-05-08 01:47 | 45.28829 | -105.19452 | 35907 ft | 457 kts | 232° |
| 2026-05-08 01:48 | 45.22204 | -105.29196 | 35907 ft | 457 kts | 232° |
| 2026-05-08 01:48 | 45.17782 | -105.35682 | 35901 ft | 457 kts | 232° |
| 2026-05-08 01:49 | 45.13356 | -105.42156 | 35905 ft | 457 kts | 232° |
| 2026-05-08 01:49 | 45.08957 | -105.48576 | 35891 ft | 456 kts | 232° |
| 2026-05-08 01:50 | 45.04533 | -105.55016 | 35897 ft | 456 kts | 232° |
| 2026-05-08 01:50 | 45.00108 | -105.61444 | 35910 ft | 456 kts | 232° |
| 2026-05-08 01:51 | 44.95679 | -105.67864 | 35914 ft | 457 kts | 232° |
| 2026-05-08 01:51 | 44.91234 | -105.74291 | 35919 ft | 457 kts | 232° |
| 2026-05-08 01:52 | 44.86783 | -105.80710 | 35900 ft | 458 kts | 232° |
| 2026-05-08 01:52 | 44.82335 | -105.87110 | 35913 ft | 457 kts | 232° |
| 2026-05-08 01:53 | 44.77911 | -105.93460 | 35921 ft | 458 kts | 232° |
| 2026-05-08 01:53 | 44.73444 | -105.99858 | 35921 ft | 458 kts | 232° |
| 2026-05-08 01:54 | 44.68969 | -106.06254 | 35914 ft | 458 kts | 232° |
| 2026-05-08 01:54 | 44.64491 | -106.12637 | 35919 ft | 458 kts | 232° |
| 2026-05-08 01:55 | 44.60037 | -106.18970 | 35917 ft | 458 kts | 232° |
| 2026-05-08 01:55 | 44.55550 | -106.25338 | 35914 ft | 459 kts | 232° |
| 2026-05-08 01:56 | 44.51059 | -106.31696 | 35924 ft | 459 kts | 232° |
| 2026-05-08 01:56 | 44.46555 | -106.38057 | 35924 ft | 459 kts | 232° |
| 2026-05-08 01:57 | 44.42052 | -106.44401 | 35961 ft | 460 kts | 232° |
| 2026-05-08 01:57 | 44.37541 | -106.50743 | 35985 ft | 460 kts | 232° |
| 2026-05-08 01:58 | 44.33038 | -106.57058 | 35996 ft | 461 kts | 231° |
| 2026-05-08 01:58 | 44.28506 | -106.63399 | 35894 ft | 461 kts | 232° |
| 2026-05-08 01:59 | 44.23941 | -106.69777 | 36204 ft | 466 kts | 232° |
| 2026-05-08 01:59 | 44.21650 | -106.72969 | 36621 ft | 464 kts | 231° |
| 2026-05-08 01:59 | 44.19399 | -106.76099 | 37020 ft | 462 kts | 231° |
| 2026-05-08 02:00 | 44.17125 | -106.79258 | 37339 ft | 462 kts | 231° |
| 2026-05-08 02:00 | 44.14845 | -106.82424 | 37625 ft | 462 kts | 231° |
| 2026-05-08 02:00 | 44.12566 | -106.85587 | 37870 ft | 464 kts | 231° |
| 2026-05-08 02:00 | 44.10266 | -106.88778 | 37904 ft | 467 kts | 231° |
| 2026-05-08 02:01 | 44.05663 | -106.95143 | 37932 ft | 464 kts | 231° |
| 2026-05-08 02:01 | 44.01097 | -107.01437 | 37946 ft | 460 kts | 231° |
| 2026-05-08 02:02 | 43.96582 | -107.07653 | 37956 ft | 458 kts | 231° |
| 2026-05-08 02:02 | 43.92051 | -107.13878 | 37963 ft | 458 kts | 231° |
| 2026-05-08 02:03 | 43.87508 | -107.20111 | 37949 ft | 462 kts | 231° |
| 2026-05-08 02:03 | 43.82892 | -107.26438 | 37971 ft | 470 kts | 231° |
| 2026-05-08 02:04 | 43.78251 | -107.32762 | 37976 ft | 471 kts | 231° |
| 2026-05-08 02:04 | 43.73569 | -107.39128 | 37963 ft | 472 kts | 231° |
| 2026-05-08 02:05 | 43.68884 | -107.45485 | 37952 ft | 471 kts | 231° |
| 2026-05-08 02:05 | 43.64986 | -107.50768 | 37966 ft | 471 kts | 231° |
| 2026-05-08 02:06 | 43.60301 | -107.57104 | 37957 ft | 471 kts | 231° |
| 2026-05-08 02:06 | 43.55608 | -107.63438 | 37963 ft | 472 kts | 231° |
| 2026-05-08 02:07 | 43.50903 | -107.69771 | 37949 ft | 472 kts | 231° |
| 2026-05-08 02:07 | 43.46224 | -107.76054 | 37921 ft | 472 kts | 232° |
| 2026-05-08 02:08 | 43.41518 | -107.82359 | 37939 ft | 473 kts | 231° |
| 2026-05-08 02:08 | 43.36791 | -107.88679 | 37929 ft | 474 kts | 231° |
| 2026-05-08 02:09 | 43.32053 | -107.94999 | 37921 ft | 475 kts | 231° |
| 2026-05-08 02:09 | 43.27297 | -108.01327 | 37923 ft | 475 kts | 231° |
| 2026-05-08 02:10 | 43.22574 | -108.07598 | 37916 ft | 476 kts | 231° |
| 2026-05-08 02:10 | 43.17795 | -108.13929 | 37935 ft | 477 kts | 231° |
| 2026-05-08 02:11 | 43.13022 | -108.20236 | 37937 ft | 476 kts | 231° |
| 2026-05-08 02:11 | 43.08249 | -108.26527 | 37972 ft | 476 kts | 231° |
| 2026-05-08 02:12 | 43.03505 | -108.32768 | 37994 ft | 476 kts | 231° |
| 2026-05-08 02:12 | 42.98730 | -108.39035 | 37993 ft | 475 kts | 231° |
| 2026-05-08 02:13 | 42.93954 | -108.45290 | 37957 ft | 475 kts | 232° |
| 2026-05-08 02:13 | 42.89179 | -108.51532 | 37938 ft | 475 kts | 231° |
| 2026-05-08 02:14 | 42.84422 | -108.57733 | 38003 ft | 476 kts | 231° |
| 2026-05-08 02:14 | 42.79631 | -108.63967 | 38021 ft | 477 kts | 231° |
| 2026-05-08 02:15 | 42.74817 | -108.70215 | 38014 ft | 477 kts | 231° |
| 2026-05-08 02:15 | 42.70005 | -108.76445 | 37902 ft | 477 kts | 231° |
| 2026-05-08 02:16 | 42.65181 | -108.82678 | 37870 ft | 479 kts | 232° |
| 2026-05-08 02:16 | 42.60339 | -108.88924 | 37917 ft | 480 kts | 232° |
| 2026-05-08 02:17 | 42.55505 | -108.95140 | 37903 ft | 482 kts | 231° |
| 2026-05-08 02:17 | 42.50628 | -109.01398 | 37915 ft | 483 kts | 231° |
| 2026-05-08 02:18 | 42.45734 | -109.07665 | 37920 ft | 484 kts | 231° |
| 2026-05-08 02:18 | 42.40832 | -109.13925 | 37890 ft | 484 kts | 232° |
| 2026-05-08 02:19 | 42.35967 | -109.20124 | 37894 ft | 483 kts | 232° |
| 2026-05-08 02:19 | 42.31078 | -109.26343 | 37902 ft | 482 kts | 232° |
| 2026-05-08 02:20 | 42.26188 | -109.32549 | 37892 ft | 482 kts | 232° |
| 2026-05-08 02:20 | 42.21301 | -109.38736 | 37896 ft | 481 kts | 232° |
| 2026-05-08 02:21 | 42.16450 | -109.44865 | 37904 ft | 481 kts | 232° |
| 2026-05-08 02:21 | 42.11567 | -109.51021 | 37898 ft | 481 kts | 232° |
| 2026-05-08 02:22 | 42.06667 | -109.57186 | 37905 ft | 482 kts | 232° |
| 2026-05-08 02:22 | 42.01742 | -109.63369 | 37911 ft | 484 kts | 232° |
| 2026-05-08 02:23 | 41.96822 | -109.69532 | 37912 ft | 486 kts | 232° |
| 2026-05-08 02:23 | 41.91851 | -109.75741 | 37914 ft | 488 kts | 232° |
| 2026-05-08 02:24 | 41.86867 | -109.81953 | 37877 ft | 488 kts | 231° |
| 2026-05-08 02:24 | 41.81915 | -109.88110 | 37927 ft | 488 kts | 231° |
| 2026-05-08 02:25 | 41.76932 | -109.94295 | 37909 ft | 489 kts | 231° |
| 2026-05-08 02:25 | 41.71925 | -110.00495 | 37912 ft | 489 kts | 231° |
| 2026-05-08 02:26 | 41.66957 | -110.06634 | 37932 ft | 489 kts | 231° |
| 2026-05-08 02:26 | 41.61953 | -110.12803 | 37922 ft | 488 kts | 231° |
| 2026-05-08 02:27 | 41.56969 | -110.18932 | 37927 ft | 485 kts | 231° |
| 2026-05-08 02:27 | 41.52006 | -110.25026 | 37949 ft | 484 kts | 231° |
| 2026-05-08 02:28 | 41.47050 | -110.31099 | 38130 ft | 483 kts | 231° |
| 2026-05-08 02:28 | 41.42131 | -110.37115 | 38143 ft | 482 kts | 231° |
| 2026-05-08 02:29 | 41.37106 | -110.43065 | 38117 ft | 487 kts | 226° |
| 2026-05-08 02:29 | 41.31494 | -110.48244 | 38100 ft | 491 kts | 222° |
| 2026-05-08 02:30 | 41.25817 | -110.53271 | 38100 ft | 490 kts | 222° |
| 2026-05-08 02:30 | 41.20191 | -110.58286 | 38076 ft | 489 kts | 223° |
| 2026-05-08 02:31 | 41.14553 | -110.63341 | 38027 ft | 489 kts | 223° |
| 2026-05-08 02:31 | 41.08908 | -110.68405 | 38040 ft | 489 kts | 222° |
| 2026-05-08 02:32 | 41.03266 | -110.73461 | 38041 ft | 490 kts | 222° |
| 2026-05-08 02:32 | 40.97641 | -110.78488 | 38023 ft | 490 kts | 222° |
| 2026-05-08 02:33 | 40.91985 | -110.83525 | 38046 ft | 490 kts | 222° |
| 2026-05-08 02:33 | 40.86319 | -110.88563 | 38041 ft | 490 kts | 222° |
| 2026-05-08 02:34 | 40.80650 | -110.93597 | 38037 ft | 492 kts | 222° |
| 2026-05-08 02:34 | 40.74956 | -110.98641 | 38040 ft | 492 kts | 222° |
| 2026-05-08 02:35 | 40.69311 | -111.03624 | 38028 ft | 491 kts | 222° |
| 2026-05-08 02:35 | 40.63621 | -111.08646 | 38006 ft | 492 kts | 221° |
| 2026-05-08 02:36 | 40.57937 | -111.13648 | 38031 ft | 492 kts | 221° |
| 2026-05-08 02:36 | 40.52279 | -111.18616 | 38040 ft | 492 kts | 221° |
| 2026-05-08 02:37 | 40.46575 | -111.23618 | 38042 ft | 493 kts | 221° |
| 2026-05-08 02:37 | 40.40857 | -111.28618 | 38042 ft | 494 kts | 221° |
| 2026-05-08 02:38 | 40.35133 | -111.33621 | 38048 ft | 492 kts | 221° |
| 2026-05-08 02:38 | 40.29449 | -111.38563 | 38027 ft | 493 kts | 221° |
| 2026-05-08 02:39 | 40.23721 | -111.43529 | 38005 ft | 492 kts | 221° |
| 2026-05-08 02:39 | 40.18002 | -111.48500 | 37978 ft | 492 kts | 221° |
| 2026-05-08 02:40 | 40.12321 | -111.53428 | 37947 ft | 492 kts | 220° |
| 2026-05-08 02:40 | 40.06596 | -111.58372 | 37949 ft | 494 kts | 220° |
| 2026-05-08 02:41 | 40.00845 | -111.63327 | 37954 ft | 495 kts | 220° |
| 2026-05-08 02:41 | 39.95089 | -111.68278 | 37924 ft | 495 kts | 220° |
| 2026-05-08 02:42 | 39.89335 | -111.73219 | 37926 ft | 495 kts | 220° |
| 2026-05-08 02:42 | 39.83624 | -111.78116 | 37932 ft | 492 kts | 220° |
| 2026-05-08 02:43 | 39.77906 | -111.83007 | 37956 ft | 493 kts | 219° |
| 2026-05-08 02:43 | 39.72178 | -111.87886 | 37955 ft | 495 kts | 219° |
| 2026-05-08 02:44 | 39.66399 | -111.92808 | 37961 ft | 497 kts | 219° |
| 2026-05-08 02:44 | 39.60608 | -111.97732 | 37947 ft | 498 kts | 219° |
| 2026-05-08 02:45 | 39.54797 | -112.02661 | 37943 ft | 498 kts | 219° |
| 2026-05-08 02:45 | 39.49028 | -112.07544 | 37931 ft | 498 kts | 219° |
| 2026-05-08 02:46 | 39.43230 | -112.12441 | 37936 ft | 497 kts | 219° |
| 2026-05-08 02:46 | 39.37440 | -112.17321 | 37925 ft | 495 kts | 218° |
| 2026-05-08 02:47 | 39.31684 | -112.22163 | 37941 ft | 493 kts | 218° |
| 2026-05-08 02:47 | 39.25922 | -112.27004 | 37945 ft | 493 kts | 218° |
| 2026-05-08 02:48 | 39.20177 | -112.31818 | 37991 ft | 491 kts | 218° |
| 2026-05-08 02:48 | 39.14470 | -112.36591 | 38003 ft | 491 kts | 218° |
| 2026-05-08 02:49 | 39.08741 | -112.41374 | 38022 ft | 491 kts | 218° |
| 2026-05-08 02:49 | 39.03034 | -112.46129 | 38027 ft | 491 kts | 217° |
| 2026-05-08 02:50 | 38.97294 | -112.50902 | 37929 ft | 491 kts | 217° |
| 2026-05-08 02:50 | 38.91544 | -112.55674 | 37941 ft | 492 kts | 217° |
| 2026-05-08 02:51 | 38.85787 | -112.60443 | 37916 ft | 492 kts | 217° |
| 2026-05-08 02:51 | 38.80038 | -112.65194 | 37940 ft | 492 kts | 217° |
| 2026-05-08 02:52 | 38.74278 | -112.69946 | 37938 ft | 492 kts | 217° |
| 2026-05-08 02:52 | 38.68518 | -112.74689 | 37932 ft | 492 kts | 217° |
| 2026-05-08 02:53 | 38.62802 | -112.79387 | 37955 ft | 491 kts | 216° |
| 2026-05-08 02:53 | 38.57051 | -112.84104 | 37992 ft | 490 kts | 216° |
| 2026-05-08 02:54 | 38.51305 | -112.88809 | 38012 ft | 490 kts | 216° |
| 2026-05-08 02:54 | 38.46537 | -112.92707 | 38027 ft | 490 kts | 216° |
| 2026-05-08 02:55 | 38.36994 | -113.00524 | 38027 ft | 488 kts | 218° |
| 2026-05-08 02:56 | 38.32593 | -113.05041 | 38024 ft | 483 kts | 226° |
| 2026-05-08 02:56 | 38.27634 | -113.10822 | 37984 ft | 483 kts | 226° |
| 2026-05-08 02:57 | 38.22689 | -113.16553 | 37971 ft | 483 kts | 226° |
| 2026-05-08 02:57 | 38.17680 | -113.22291 | 37946 ft | 484 kts | 225° |
| 2026-05-08 02:58 | 38.12661 | -113.28012 | 37920 ft | 485 kts | 225° |
| 2026-05-08 02:58 | 38.07661 | -113.33703 | 37915 ft | 485 kts | 225° |
| 2026-05-08 02:59 | 38.02624 | -113.39429 | 37926 ft | 486 kts | 225° |
| 2026-05-08 02:59 | 37.97580 | -113.45151 | 37922 ft | 486 kts | 224° |
| 2026-05-08 03:00 | 37.91898 | -113.49783 | 37930 ft | 493 kts | 206° |
| 2026-05-08 03:00 | 37.85283 | -113.52157 | 37935 ft | 497 kts | 192° |
| 2026-05-08 03:01 | 37.78461 | -113.53685 | 37923 ft | 497 kts | 191° |
| 2026-05-08 03:01 | 37.71652 | -113.55234 | 37926 ft | 497 kts | 192° |
| 2026-05-08 03:02 | 37.64860 | -113.56849 | 37928 ft | 496 kts | 192° |
| 2026-05-08 03:02 | 37.58080 | -113.58485 | 37922 ft | 495 kts | 192° |
| 2026-05-08 03:03 | 37.51348 | -113.60106 | 37923 ft | 494 kts | 192° |
| 2026-05-08 03:03 | 37.44594 | -113.61725 | 37907 ft | 493 kts | 192° |
| 2026-05-08 03:04 | 37.37861 | -113.63335 | 37902 ft | 491 kts | 192° |
| 2026-05-08 03:04 | 37.31132 | -113.64942 | 37884 ft | 492 kts | 192° |
| 2026-05-08 03:05 | 37.24432 | -113.66538 | 37916 ft | 493 kts | 192° |
| 2026-05-08 03:05 | 37.17671 | -113.68147 | 37940 ft | 495 kts | 192° |
| 2026-05-08 03:06 | 37.10889 | -113.69757 | 37934 ft | 497 kts | 192° |
| 2026-05-08 03:06 | 37.04117 | -113.71566 | 37933 ft | 497 kts | 198° |
| 2026-05-08 03:07 | 36.97675 | -113.74541 | 37919 ft | 497 kts | 204° |
| 2026-05-08 03:07 | 36.91234 | -113.77753 | 37912 ft | 498 kts | 203° |
| 2026-05-08 03:08 | 36.84776 | -113.80908 | 37879 ft | 497 kts | 202° |
| 2026-05-08 03:08 | 36.78349 | -113.84009 | 37869 ft | 493 kts | 202° |
| 2026-05-08 03:09 | 36.71966 | -113.87082 | 37869 ft | 489 kts | 202° |
| 2026-05-08 03:09 | 36.65668 | -113.90114 | 37854 ft | 487 kts | 202° |
| 2026-05-08 03:10 | 36.59446 | -113.93436 | 37857 ft | 486 kts | 206° |
| 2026-05-08 03:10 | 36.53284 | -113.96954 | 37862 ft | 487 kts | 205° |
| 2026-05-08 03:11 | 36.47090 | -114.00403 | 37857 ft | 489 kts | 205° |
| 2026-05-08 03:11 | 36.40885 | -114.03892 | 37836 ft | 490 kts | 208° |
| 2026-05-08 03:12 | 36.35060 | -114.08214 | 37837 ft | 490 kts | 213° |
| 2026-05-08 03:12 | 36.29277 | -114.12732 | 37836 ft | 491 kts | 213° |
| 2026-05-08 03:13 | 36.23455 | -114.17210 | 37812 ft | 492 kts | 213° |
| 2026-05-08 03:13 | 36.17618 | -114.21659 | 37813 ft | 492 kts | 213° |
| 2026-05-08 03:14 | 36.11799 | -114.26108 | 37796 ft | 491 kts | 215° |
| 2026-05-08 03:14 | 36.06528 | -114.31327 | 37807 ft | 488 kts | 226° |
| 2026-05-08 03:15 | 36.01965 | -114.37516 | 37816 ft | 486 kts | 231° |
| 2026-05-08 03:15 | 35.97501 | -114.43806 | 37806 ft | 486 kts | 230° |
| 2026-05-08 03:16 | 35.93009 | -114.50062 | 37834 ft | 487 kts | 230° |
| 2026-05-08 03:16 | 35.88518 | -114.56264 | 37840 ft | 487 kts | 230° |
| 2026-05-08 03:17 | 35.83988 | -114.62502 | 37807 ft | 487 kts | 230° |
| 2026-05-08 03:17 | 35.79463 | -114.68725 | 37861 ft | 487 kts | 230° |
| 2026-05-08 03:18 | 35.74937 | -114.74940 | 37861 ft | 488 kts | 230° |
| 2026-05-08 03:18 | 35.70432 | -114.81117 | 37902 ft | 488 kts | 230° |
| 2026-05-08 03:19 | 35.65891 | -114.87331 | 37900 ft | 488 kts | 230° |
| 2026-05-08 03:19 | 35.61355 | -114.93548 | 37906 ft | 487 kts | 230° |
| 2026-05-08 03:20 | 35.56818 | -114.99768 | 37904 ft | 487 kts | 230° |
| 2026-05-08 03:20 | 35.52291 | -115.05961 | 37913 ft | 486 kts | 230° |
| 2026-05-08 03:21 | 35.47760 | -115.12050 | 37919 ft | 486 kts | 228° |
| 2026-05-08 03:21 | 35.43123 | -115.18066 | 37932 ft | 485 kts | 228° |
| 2026-05-08 03:22 | 35.38488 | -115.24066 | 37940 ft | 484 kts | 228° |
| 2026-05-08 03:22 | 35.33867 | -115.30069 | 37958 ft | 484 kts | 228° |
| 2026-05-08 03:23 | 35.29248 | -115.36072 | 37939 ft | 484 kts | 228° |
| 2026-05-08 03:23 | 35.24633 | -115.42057 | 37960 ft | 483 kts | 228° |
| 2026-05-08 03:24 | 35.20040 | -115.48003 | 37959 ft | 483 kts | 228° |
| 2026-05-08 03:24 | 35.15416 | -115.53979 | 37952 ft | 483 kts | 228° |
| 2026-05-08 03:25 | 35.10778 | -115.59956 | 37952 ft | 484 kts | 228° |
| 2026-05-08 03:25 | 35.06140 | -115.65886 | 37927 ft | 485 kts | 228° |
| 2026-05-08 03:26 | 35.01465 | -115.71849 | 37937 ft | 486 kts | 228° |
| 2026-05-08 03:26 | 34.96783 | -115.77816 | 37915 ft | 487 kts | 228° |
| 2026-05-08 03:27 | 34.92121 | -115.83750 | 37718 ft | 486 kts | 228° |
| 2026-05-08 03:27 | 34.89768 | -115.86742 | 37003 ft | 488 kts | 228° |
| 2026-05-08 03:27 | 34.87430 | -115.89712 | 36550 ft | 482 kts | 228° |
| 2026-05-08 03:27 | 34.85115 | -115.92649 | 36098 ft | 477 kts | 228° |
| 2026-05-08 03:28 | 34.82824 | -115.95554 | 35654 ft | 472 kts | 228° |
| 2026-05-08 03:28 | 34.80559 | -115.98426 | 35205 ft | 468 kts | 228° |
| 2026-05-08 03:28 | 34.78305 | -116.01279 | 34753 ft | 465 kts | 228° |
| 2026-05-08 03:28 | 34.76076 | -116.04103 | 34310 ft | 461 kts | 228° |
| 2026-05-08 03:29 | 34.73866 | -116.06913 | 33871 ft | 458 kts | 228° |
| 2026-05-08 03:29 | 34.71696 | -116.09679 | 33357 ft | 456 kts | 228° |
| 2026-05-08 03:29 | 34.69518 | -116.12454 | 32905 ft | 452 kts | 228° |
| 2026-05-08 03:29 | 34.67353 | -116.15211 | 32454 ft | 449 kts | 228° |
| 2026-05-08 03:30 | 34.63069 | -116.20658 | 31577 ft | 442 kts | 228° |
| 2026-05-08 03:30 | 34.58848 | -116.26013 | 30710 ft | 436 kts | 227° |
| 2026-05-08 03:31 | 34.54673 | -116.31301 | 29862 ft | 431 kts | 227° |
| 2026-05-08 03:31 | 34.50543 | -116.36524 | 28898 ft | 425 kts | 227° |
| 2026-05-08 03:32 | 34.48499 | -116.39107 | 28467 ft | 422 kts | 227° |
| 2026-05-08 03:32 | 34.46475 | -116.41664 | 28025 ft | 418 kts | 227° |
| 2026-05-08 03:32 | 34.44494 | -116.44162 | 27599 ft | 415 kts | 227° |
| 2026-05-08 03:32 | 34.42500 | -116.46678 | 27171 ft | 412 kts | 228° |
| 2026-05-08 03:33 | 34.40808 | -116.49413 | 26721 ft | 401 kts | 245° |
| 2026-05-08 03:33 | 34.39611 | -116.52437 | 26371 ft | 396 kts | 247° |
| 2026-05-08 03:33 | 34.38441 | -116.55449 | 25942 ft | 394 kts | 246° |
| 2026-05-08 03:33 | 34.37254 | -116.58435 | 25530 ft | 392 kts | 246° |
| 2026-05-08 03:34 | 34.36053 | -116.61390 | 25123 ft | 391 kts | 245° |
| 2026-05-08 03:34 | 34.34842 | -116.64329 | 24742 ft | 389 kts | 245° |
| 2026-05-08 03:34 | 34.33627 | -116.67266 | 24322 ft | 388 kts | 245° |
| 2026-05-08 03:34 | 34.32431 | -116.70193 | 23910 ft | 388 kts | 246° |
| 2026-05-08 03:35 | 34.31263 | -116.73094 | 23502 ft | 388 kts | 246° |
| 2026-05-08 03:35 | 34.30085 | -116.76036 | 23039 ft | 387 kts | 246° |
| 2026-05-08 03:35 | 34.28913 | -116.78959 | 22603 ft | 385 kts | 246° |
| 2026-05-08 03:35 | 34.27746 | -116.81865 | 22178 ft | 383 kts | 246° |
| 2026-05-08 03:36 | 34.26736 | -116.84373 | 21817 ft | 381 kts | 246° |
| 2026-05-08 03:36 | 34.25580 | -116.87240 | 21419 ft | 378 kts | 246° |
| 2026-05-08 03:36 | 34.24430 | -116.90089 | 21018 ft | 376 kts | 245° |
| 2026-05-08 03:36 | 34.23286 | -116.92924 | 20615 ft | 374 kts | 245° |
| 2026-05-08 03:37 | 34.22144 | -116.95744 | 20211 ft | 373 kts | 245° |
| 2026-05-08 03:37 | 34.21013 | -116.98564 | 19793 ft | 371 kts | 248° |
| 2026-05-08 03:37 | 34.20109 | -117.01432 | 19417 ft | 368 kts | 254° |
| 2026-05-08 03:37 | 34.19363 | -117.04383 | 19014 ft | 367 kts | 255° |
| 2026-05-08 03:38 | 34.18636 | -117.07334 | 18599 ft | 367 kts | 255° |
| 2026-05-08 03:38 | 34.17875 | -117.10270 | 18171 ft | 365 kts | 254° |
| 2026-05-08 03:38 | 34.17092 | -117.13187 | 17730 ft | 363 kts | 253° |
| 2026-05-08 03:38 | 34.16314 | -117.16044 | 17298 ft | 353 kts | 253° |
| 2026-05-08 03:39 | 34.15541 | -117.18852 | 16911 ft | 351 kts | 252° |
| 2026-05-08 03:39 | 34.14782 | -117.21604 | 16486 ft | 344 kts | 252° |
| 2026-05-08 03:39 | 34.14036 | -117.24309 | 16115 ft | 338 kts | 252° |
| 2026-05-08 03:39 | 34.13294 | -117.27000 | 15735 ft | 337 kts | 252° |
| 2026-05-08 03:40 | 34.12557 | -117.29679 | 15360 ft | 336 kts | 252° |
| 2026-05-08 03:40 | 34.11819 | -117.32356 | 14976 ft | 335 kts | 252° |
| 2026-05-08 03:40 | 34.11082 | -117.35022 | 14611 ft | 334 kts | 252° |
| 2026-05-08 03:40 | 34.10354 | -117.37678 | 14228 ft | 333 kts | 253° |
| 2026-05-08 03:41 | 34.09676 | -117.40353 | 13842 ft | 333 kts | 253° |
| 2026-05-08 03:41 | 34.09025 | -117.42997 | 13425 ft | 332 kts | 254° |
| 2026-05-08 03:41 | 34.08364 | -117.45666 | 13035 ft | 331 kts | 253° |
| 2026-05-08 03:41 | 34.07699 | -117.48325 | 12650 ft | 330 kts | 253° |
| 2026-05-08 03:42 | 34.07035 | -117.50965 | 12279 ft | 328 kts | 253° |
| 2026-05-08 03:42 | 34.06365 | -117.53596 | 11903 ft | 326 kts | 253° |
| 2026-05-08 03:42 | 34.05697 | -117.56204 | 11534 ft | 324 kts | 254° |
| 2026-05-08 03:42 | 34.05032 | -117.58800 | 11171 ft | 320 kts | 254° |
| 2026-05-08 03:43 | 34.04403 | -117.61256 | 10790 ft | 301 kts | 254° |
| 2026-05-08 03:43 | 34.03788 | -117.63658 | 10471 ft | 300 kts | 254° |
| 2026-05-08 03:43 | 34.03173 | -117.66060 | 10245 ft | 297 kts | 254° |
| 2026-05-08 03:43 | 34.02581 | -117.68365 | 10092 ft | 281 kts | 254° |
| 2026-05-08 03:44 | 34.02055 | -117.70595 | 9968 ft | 277 kts | 260° |
| 2026-05-08 03:44 | 34.01795 | -117.72920 | 9664 ft | 278 kts | 265° |
| 2026-05-08 03:44 | 34.01616 | -117.75172 | 9343 ft | 268 kts | 265° |
| 2026-05-08 03:44 | 34.01431 | -117.77428 | 9008 ft | 274 kts | 265° |
| 2026-05-08 03:45 | 34.01232 | -117.79694 | 8751 ft | 270 kts | 265° |
| 2026-05-08 03:45 | 34.01022 | -117.81942 | 8383 ft | 268 kts | 265° |
| 2026-05-08 03:45 | 34.00809 | -117.84153 | 8068 ft | 264 kts | 265° |
| 2026-05-08 03:45 | 34.00600 | -117.86307 | 7764 ft | 261 kts | 265° |
| 2026-05-08 03:46 | 34.00390 | -117.88452 | 7457 ft | 252 kts | 265° |
| 2026-05-08 03:46 | 34.00216 | -117.90522 | 7006 ft | 246 kts | 267° |
| 2026-05-08 03:46 | 34.00060 | -117.92547 | 6684 ft | 238 kts | 266° |
| 2026-05-08 03:46 | 33.99888 | -117.94466 | 6234 ft | 225 kts | 265° |
| 2026-05-08 03:47 | 33.99709 | -117.96323 | 5796 ft | 225 kts | 265° |
| 2026-05-08 03:47 | 33.99522 | -117.98178 | 5465 ft | 221 kts | 265° |
| 2026-05-08 03:47 | 33.99335 | -118.00015 | 5087 ft | 220 kts | 264° |
| 2026-05-08 03:47 | 33.99148 | -118.01828 | 4839 ft | 213 kts | 265° |
| 2026-05-08 03:48 | 33.98968 | -118.03594 | 4650 ft | 213 kts | 264° |
| 2026-05-08 03:48 | 33.98787 | -118.05370 | 4495 ft | 218 kts | 264° |
| 2026-05-08 03:48 | 33.98598 | -118.07211 | 4289 ft | 216 kts | 265° |
| 2026-05-08 03:48 | 33.98422 | -118.08902 | 4062 ft | 199 kts | 265° |
| 2026-05-08 03:49 | 33.98257 | -118.10508 | 3892 ft | 187 kts | 265° |
| 2026-05-08 03:49 | 33.98102 | -118.12022 | 3714 ft | 177 kts | 265° |
| 2026-05-08 03:49 | 33.97951 | -118.13506 | 3591 ft | 181 kts | 264° |
| 2026-05-08 03:49 | 33.97800 | -118.14972 | 3452 ft | 169 kts | 264° |
| 2026-05-08 03:50 | 33.97662 | -118.16307 | 3280 ft | 151 kts | 265° |
| 2026-05-08 03:50 | 33.97541 | -118.17490 | 3152 ft | 142 kts | 264° |
| 2026-05-08 03:50 | 33.97418 | -118.18689 | 3015 ft | 145 kts | 264° |
| 2026-05-08 03:50 | 33.97296 | -118.19886 | 2879 ft | 143 kts | 264° |
| 2026-05-08 03:51 | 33.97174 | -118.21078 | 2725 ft | 144 kts | 263° |
| 2026-05-08 03:51 | 33.97050 | -118.22285 | 2576 ft | 146 kts | 263° |
| 2026-05-08 03:51 | 33.96925 | -118.23505 | 2432 ft | 147 kts | 263° |
| 2026-05-08 03:51 | 33.96800 | -118.24722 | 2308 ft | 145 kts | 263° |
| 2026-05-08 03:52 | 33.96677 | -118.25918 | 2252 ft | 144 kts | 263° |
| 2026-05-08 03:52 | 33.96553 | -118.27126 | 2207 ft | 146 kts | 263° |
| 2026-05-08 03:52 | 33.96428 | -118.28336 | 2133 ft | 142 kts | 262° |
| 2026-05-08 03:52 | 33.96297 | -118.29496 | 1985 ft | 144 kts | 261° |
| 2026-05-08 03:53 | 33.96148 | -118.30720 | 1853 ft | 150 kts | 262° |
| 2026-05-08 03:53 | 33.96026 | -118.31987 | 1529 ft | 152 kts | 264° |
| 2026-05-08 03:53 | 33.95910 | -118.33208 | 1269 ft | 141 kts | 261° |
| 2026-05-08 03:53 | 33.95792 | -118.34367 | 1022 ft | 140 kts | 262° |
| 2026-05-08 03:54 | 33.95672 | -118.35549 | 829 ft | 143 kts | 262° |
| 2026-05-08 03:54 | 33.95558 | -118.36719 | 664 ft | 136 kts | 263° |
| 2026-05-08 03:54 | 33.95446 | -118.37792 | 456 ft | 126 kts | 263° |
| 2026-05-08 03:54 | 33.95343 | -118.38853 | 312 ft | 131 kts | 264° |
| 2026-05-08 03:55 | 33.95227 | -118.39974 | 156 ft | 136 kts | 264° |
| 2026-05-08 03:55 | 33.95121 | -118.41068 | 99 ft | 124 kts | 262° |
| 2026-05-08 03:55 | 33.95033 | -118.41934 | 100 ft | 78 kts | 263° |
| 2026-05-08 03:55 | 33.94971 | -118.42422 | 99 ft | 44 kts | 254° |
| 2026-05-08 03:56 | 33.94849 | -118.42682 | 104 ft | 30 kts | 227° |
| 2026-05-08 03:56 | 33.94693 | -118.42773 | 104 ft | 22 kts | 181° |
| 2026-05-08 03:56 | 33.94579 | -118.42752 | 100 ft | 10 kts | 133° |
| 2026-05-08 03:56 | 33.94567 | -118.42663 | 98 ft | 11 kts | 87° |
| 2026-05-08 03:57 | 33.94574 | -118.42564 | 101 ft | 12 kts | 83° |
| 2026-05-08 03:57 | 33.94585 | -118.42457 | 99 ft | 13 kts | 83° |
| 2026-05-08 03:57 | 33.94595 | -118.42345 | 99 ft | 14 kts | 83° |
| 2026-05-08 03:57 | 33.98264 | -118.10448 | 3898 ft | 188 kts | 265° |
| 2026-05-08 03:58 | 33.98107 | -118.11974 | 3716 ft | 177 kts | 265° |
| 2026-05-08 03:58 | 33.97956 | -118.13458 | 3584 ft | 181 kts | 264° |
| 2026-05-08 03:58 | 33.97805 | -118.14927 | 3452 ft | 170 kts | 264° |
| 2026-05-08 03:58 | 33.97668 | -118.16253 | 3290 ft | 152 kts | 265° |
| 2026-05-08 03:59 | 33.97545 | -118.17454 | 3152 ft | 142 kts | 264° |
| 2026-05-08 03:59 | 33.97422 | -118.18655 | 3019 ft | 145 kts | 265° |
| 2026-05-08 03:59 | 33.97300 | -118.19854 | 2880 ft | 143 kts | 264° |
| 2026-05-08 03:59 | 33.97179 | -118.21033 | 2728 ft | 144 kts | 263° |
| 2026-05-08 04:00 | 33.97055 | -118.22242 | 2572 ft | 146 kts | 263° |
| 2026-05-08 04:00 | 33.96929 | -118.23465 | 2438 ft | 147 kts | 263° |
| 2026-05-08 04:00 | 33.96805 | -118.24673 | 2306 ft | 145 kts | 263° |
| 2026-05-08 04:00 | 33.96682 | -118.25875 | 2250 ft | 144 kts | 263° |
| 2026-05-08 04:01 | 33.96559 | -118.27066 | 2206 ft | 146 kts | 263° |
| 2026-05-08 04:01 | 33.96434 | -118.28280 | 2159 ft | 143 kts | 262° |
| 2026-05-08 04:01 | 33.96301 | -118.29466 | 2008 ft | 144 kts | 261° |
| 2026-05-08 04:01 | 33.96153 | -118.30672 | 1876 ft | 150 kts | 262° |
| 2026-05-08 04:02 | 33.96030 | -118.31947 | 1564 ft | 152 kts | 263° |
| 2026-05-08 04:02 | 33.95916 | -118.33160 | 1292 ft | 141 kts | 261° |
| 2026-05-08 04:02 | 33.95797 | -118.34321 | 1043 ft | 140 kts | 262° |
| 2026-05-08 04:02 | 33.95677 | -118.35501 | 848 ft | 143 kts | 262° |
| 2026-05-08 04:03 | 33.95561 | -118.36689 | 679 ft | 137 kts | 263° |
| 2026-05-08 04:03 | 33.95346 | -118.38815 | 317 ft | 131 kts | 264° |
| 2026-05-08 04:03 | 33.95231 | -118.39940 | 161 ft | 136 kts | 264° |
| 2026-05-08 04:04 | 33.95126 | -118.41018 | 99 ft | 125 kts | 263° |
| 2026-05-08 04:04 | 33.95035 | -118.41912 | 102 ft | 79 kts | 263° |
| 2026-05-08 04:04 | 33.94974 | -118.42410 | 99 ft | 44 kts | 255° |
| 2026-05-08 04:04 | 33.95351 | -118.38763 | 321 ft | 129 kts | 264° |
| 2026-05-08 04:05 | 33.95270 | -118.39529 | 238 ft | 136 kts | 263° |
| 2026-05-08 04:05 | 33.95161 | -118.40653 | 104 ft | 130 kts | 263° |